AF1511 / F-GRXK 7700 Squawk Report (30th of November, 2019)

Aircraft A319 Reg No. F-GRXK Age 13 years old
Model A319 Jet engines 2 First flight 02-03-06
Registered 31-03-06 Rollout 02-06 Delivered 31-03-06
Construction No. 2716 Line No. N/A Series 115LR
ADSHEX 3946EA Airline name Air France Owner N/A
Airfield based Paris-Charles de Gaulle~Val-d'Oise~F First tracked 2017-07-13 08:27:00

Flight history for F-GRXK

Time Lat Lon Altitude Heading Speed Vertical Rate
2019-11-30 18:31:07 GMT 49.020542 2.569897 0 84 24 0
2019-11-30 18:30:49 GMT 49.020390 2.567241 0 84 20 0
2019-11-30 18:30:42 GMT 49.020344 2.566338 0 87 19 0
2019-11-30 18:29:21 GMT 49.020775 2.557375 0 101 19 0
2019-11-30 18:29:10 GMT 49.021263 2.556490 0 171 14 0
2019-11-30 18:27:16 GMT 49.025665 2.544074 1,250 84 110 -576
2019-11-30 18:27:09 GMT 49.025677 2.542314 0 84 42 0
2019-11-30 18:27:01 GMT 49.025524 2.539324 0 87 60 0
2019-11-30 18:26:48 GMT 49.024796 2.526222 1,250 84 110 -576
2019-11-30 18:26:41 GMT 49.024796 2.526222 275 84 114 -640
2019-11-30 18:26:31 GMT 49.024338 2.518264 400 85 111 -512
2019-11-30 18:26:27 GMT 49.024200 2.515587 425 84 111 -512
2019-11-30 18:26:21 GMT 49.023697 2.507196 525 85 110 -384
2019-11-30 18:26:11 GMT 49.023468 2.502700 600 85 110 -448
2019-11-30 18:26:06 GMT 49.023239 2.498404 650 85 111 -576
2019-11-30 18:26:01 GMT 49.023056 2.494671 700 84 111 -640
2019-11-30 18:25:54 GMT 49.022766 2.489487 775 85 110 -512
2019-11-30 18:25:49 GMT 49.022598 2.486150 825 85 110 -576
2019-11-30 18:25:44 GMT 49.022324 2.480868 900 84 110 -576
2019-11-30 18:25:41 GMT 49.022186 2.479178 925 85 111 -576
2019-11-30 18:25:35 GMT 49.022003 2.474811 1,000 85 111 -576
2019-11-30 18:25:31 GMT 49.021820 2.471220 1,025 84 110 -576
2019-11-30 18:25:25 GMT 49.021545 2.466501 1,075 84 111 -576
2019-11-30 18:25:22 GMT 49.021454 2.464529 1,100 84 111 -640
2019-11-30 18:25:19 GMT 49.021317 2.462205 1,125 84 111 -576
2019-11-30 18:25:16 GMT 49.021179 2.460022 1,175 85 111 -576
2019-11-30 18:25:13 GMT 49.021042 2.457135 1,175 85 111 -576
2019-11-30 18:25:09 GMT 49.020855 2.453854 1,250 85 111 -576
2019-11-30 18:25:04 GMT 49.020721 2.451008 1,375 85 110 -512
2019-11-30 18:24:58 GMT 49.020447 2.446007 1,375 84 110 -576
2019-11-30 18:24:55 GMT 49.020298 2.443229 1,375 85 110 -576
2019-11-30 18:24:48 GMT 49.019989 2.438261 1,450 85 110 -576
2019-11-30 18:24:44 GMT 49.019852 2.435444 1,500 85 110 -576
2019-11-30 18:24:41 GMT 49.019646 2.432026 1,550 85 110 -576
2019-11-30 18:24:38 GMT 49.019577 2.429950 1,550 85 110 -576
2019-11-30 18:24:35 GMT 49.019440 2.427556 1,600 85 111 -576
2019-11-30 18:24:30 GMT 49.019257 2.424035 1,650 85 110 -576
2019-11-30 18:24:27 GMT 49.019165 2.422274 1,675 85 110 -512
2019-11-30 18:24:24 GMT 49.018993 2.419956 1,750 84 112 -640
2019-11-30 18:24:18 GMT 49.018528 2.411716 1,800 85 102 -320
2019-11-30 18:24:14 GMT 49.018528 2.411716 1,825 85 113 -832
2019-11-30 18:24:09 GMT 49.018295 2.407018 1,900 85 108 -320
2019-11-30 18:24:04 GMT 49.017925 2.400368 1,950 85 99 -512
2019-11-30 18:24:00 GMT 49.017925 2.400368 1,950 85 99 -576
2019-11-30 18:23:56 GMT 49.017838 2.398611 1,975 85 99 -512
2019-11-30 18:23:52 GMT 49.017643 2.395453 2,025 84 99 -512
2019-11-30 18:23:49 GMT 49.017506 2.393068 2,075 84 99 -512
2019-11-30 18:23:46 GMT 49.017365 2.390755 2,075 84 99 -512
2019-11-30 18:23:42 GMT 49.017151 2.386569 2,125 85 100 -512
2019-11-30 18:23:36 GMT 49.017014 2.383892 2,175 84 99 -512
2019-11-30 18:23:33 GMT 49.016922 2.382132 2,200 84 99 -512
2019-11-30 18:23:30 GMT 49.016647 2.377484 2,250 84 100 -512
2019-11-30 18:23:26 GMT 49.016647 2.377484 2,275 85 100 -512
2019-11-30 18:23:23 GMT 49.016510 2.375089 2,300 84 100 -512
2019-11-30 18:23:18 GMT 49.016342 2.372180 2,350 84 100 -512
2019-11-30 18:23:15 GMT 49.016201 2.369722 2,375 85 103 -576
2019-11-30 18:23:12 GMT 49.016109 2.367843 2,400 85 101 -512
2019-11-30 18:23:09 GMT 49.016014 2.365313 2,425 85 103 -576
2019-11-30 18:23:04 GMT 49.015827 2.362350 2,500 85 103 -576
2019-11-30 18:23:01 GMT 49.015640 2.359032 2,525 84 104 -576
2019-11-30 18:22:54 GMT 49.015316 2.353604 2,600 84 106 -384
2019-11-30 18:22:51 GMT 49.015270 2.352448 2,625 85 107 -384
2019-11-30 18:22:48 GMT 49.015133 2.350424 2,625 85 107 -384
2019-11-30 18:22:45 GMT 49.014954 2.346849 2,675 85 113 -512
2019-11-30 18:22:41 GMT 49.014862 2.344454 3,175 85 129 -896
2019-11-30 18:22:38 GMT 49.014725 2.342553 2,725 85 116 -704
2019-11-30 18:22:33 GMT 49.014481 2.337775 2,800 84 117 -832
2019-11-30 18:22:29 GMT 49.014248 2.333800 2,875 84 117 -384
2019-11-30 18:22:23 GMT 49.013992 2.329524 2,900 84 123 -576
2019-11-30 18:22:16 GMT 49.013687 2.324114 2,975 85 128 -832
2019-11-30 18:22:13 GMT 49.013500 2.320356 3,025 85 130 -960
2019-11-30 18:22:07 GMT 49.013176 2.314718 3,125 85 133 -768
2019-11-30 18:22:04 GMT 49.012897 2.309514 3,175 84 137 -768
2019-11-30 18:22:01 GMT 49.012897 2.309514 3,200 84 136 -768
2019-11-30 18:21:58 GMT 49.012711 2.305972 3,225 85 138 -704
2019-11-30 18:21:54 GMT 49.012344 2.299734 3,300 84 145 -640
2019-11-30 18:21:51 GMT 49.012344 2.299734 3,325 84 146 -768
2019-11-30 18:21:45 GMT 49.011967 2.293830 3,425 85 150 -768
2019-11-30 18:21:42 GMT 49.011730 2.289132 3,450 85 150 -768
2019-11-30 18:21:38 GMT 49.011593 2.287035 3,500 85 150 -832
2019-11-30 18:21:35 GMT 49.011429 2.283184 3,600 85 149 -896
2019-11-30 18:21:30 GMT 49.011127 2.277567 3,600 85 149 -896
2019-11-30 18:21:27 GMT 49.011017 2.275578 3,650 84 148 -832
2019-11-30 18:21:23 GMT 49.010742 2.271071 3,700 85 150 -640
2019-11-30 18:21:20 GMT 49.010521 2.266581 3,725 85 151 -704
2019-11-30 18:21:17 GMT 49.010384 2.264412 3,775 85 153 -704
2019-11-30 18:21:14 GMT 49.010147 2.260648 3,825 85 153 -576
2019-11-30 18:21:11 GMT 49.010056 2.258413 3,875 85 152 -128
2019-11-30 18:21:08 GMT 49.009590 2.250896 3,875 85 152 -128
2019-11-30 18:21:05 GMT 49.009369 2.247127 3,900 85 152 0
2019-11-30 18:21:02 GMT 49.009369 2.247127 3,900 85 152 0
2019-11-30 18:20:58 GMT 49.009171 2.242946 3,900 85 152 0
2019-11-30 18:20:53 GMT 49.008911 2.238183 3,900 85 152 0
2019-11-30 18:20:50 GMT 49.008568 2.232104 3,900 84 152 0
2019-11-30 18:20:47 GMT 49.008568 2.232104 3,900 84 152 0
2019-11-30 18:20:43 GMT 49.008102 2.224225 3,900 84 151 0
2019-11-30 18:20:37 GMT 49.007915 2.221045 3,900 84 151 0
2019-11-30 18:20:33 GMT 49.007675 2.216844 3,900 85 151 0
2019-11-30 18:20:26 GMT 49.007355 2.210224 3,900 86 151 0
2019-11-30 18:20:23 GMT 49.007126 2.204097 3,900 87 151 0
2019-11-30 18:20:17 GMT 49.006985 2.200157 3,900 86 151 0
2019-11-30 18:20:13 GMT 49.006851 2.195998 3,900 86 152 0
2019-11-30 18:20:10 GMT 49.006760 2.193463 3,900 86 152 0
2019-11-30 18:20:07 GMT 49.006531 2.186631 3,900 88 152 0
2019-11-30 18:20:01 GMT 49.006474 2.182015 3,900 88 152 0
2019-11-30 18:19:58 GMT 49.006474 2.177317 3,900 91 152 0
2019-11-30 18:19:52 GMT 49.006565 2.174209 3,900 94 151 0
2019-11-30 18:19:49 GMT 49.007538 2.165011 3,900 103 151 0
2019-11-30 18:19:45 GMT 49.007538 2.165011 3,900 106 150 0
2019-11-30 18:19:40 GMT 49.008224 2.161560 3,900 110 151 0
2019-11-30 18:19:36 GMT 49.010513 2.153602 3,900 117 151 0
2019-11-30 18:19:29 GMT 49.012894 2.147052 3,875 118 152 0
2019-11-30 18:19:26 GMT 49.012894 2.147052 3,900 118 153 0
2019-11-30 18:19:23 GMT 49.014618 2.142189 3,900 118 154 0
2019-11-30 18:19:20 GMT 49.014618 2.142189 3,875 118 157 64
2019-11-30 18:19:16 GMT 49.016247 2.137636 3,875 118 161 0
2019-11-30 18:19:12 GMT 49.017460 2.134311 3,875 119 166 128
2019-11-30 18:19:08 GMT 49.019135 2.129758 3,875 119 170 -64
2019-11-30 18:19:04 GMT 49.022415 2.120854 3,900 119 171 0
2019-11-30 18:19:00 GMT 49.022415 2.120854 3,900 119 171 0
2019-11-30 18:18:56 GMT 49.025513 2.112628 3,900 120 171 0
2019-11-30 18:18:52 GMT 49.025513 2.112628 3,900 120 171 0
2019-11-30 18:18:48 GMT 49.026810 2.109445 3,900 121 171 0
2019-11-30 18:18:45 GMT 49.028366 2.105783 3,900 124 171 -64
2019-11-30 18:18:42 GMT 49.030819 2.100340 3,900 131 172 0
2019-11-30 18:18:34 GMT 49.033585 2.096135 3,900 185 198 64
2019-11-30 18:18:28 GMT 49.038666 2.091839 3,900 162 179 0
2019-11-30 18:18:23 GMT 49.041733 2.090712 3,900 172 183 64
2019-11-30 18:18:18 GMT 49.050430 2.090783 3,875 185 194 64
2019-11-30 18:18:15 GMT 49.051815 2.090944 3,875 185 197 128
2019-11-30 18:18:12 GMT 49.051815 2.090944 3,875 185 198 64
2019-11-30 18:18:09 GMT 49.054375 2.091233 3,875 185 214 0
2019-11-30 18:18:04 GMT 49.058990 2.091769 3,875 185 205 64
2019-11-30 18:18:01 GMT 49.064621 2.092473 3,850 185 214 0
2019-11-30 18:17:54 GMT 49.069458 2.093040 3,875 185 218 0
2019-11-30 18:17:51 GMT 49.072109 2.093329 3,875 185 219 -64
2019-11-30 18:17:48 GMT 49.075699 2.093670 3,875 185 223 0
2019-11-30 18:17:44 GMT 49.078995 2.094093 3,900 185 223 -64
2019-11-30 18:17:41 GMT 49.086075 2.094847 3,900 185 222 -64
2019-11-30 18:17:37 GMT 49.091431 2.095425 3,900 185 222 -64
2019-11-30 18:17:33 GMT 49.091431 2.095425 3,900 185 221 -128
2019-11-30 18:17:30 GMT 49.094055 2.095713 3,900 185 221 -128
2019-11-30 18:17:26 GMT 49.097305 2.096065 3,925 184 221 -192
2019-11-30 18:17:23 GMT 49.101151 2.096487 3,925 184 222 -384
2019-11-30 18:17:20 GMT 49.104263 2.096769 3,950 184 222 -512
2019-11-30 18:17:17 GMT 49.106918 2.097051 3,975 184 223 -896
2019-11-30 18:17:11 GMT 49.117172 2.098100 4,225 186 227 -768
2019-11-30 18:17:07 GMT 49.117172 2.098100 4,125 193 230 -896
2019-11-30 18:17:04 GMT 49.119640 2.098389 4,175 186 226 -768
2019-11-30 18:17:00 GMT 49.123596 2.099111 4,225 190 228 -832
2019-11-30 18:16:57 GMT 49.128571 2.100572 4,300 200 234 -896
2019-11-30 18:16:51 GMT 49.134396 2.104388 4,375 215 241 -960
2019-11-30 18:16:48 GMT 49.136307 2.106122 4,425 217 242 -960
2019-11-30 18:16:45 GMT 49.139145 2.109375 4,450 221 244 -960
2019-11-30 18:16:42 GMT 49.141571 2.112826 4,525 229 248 -960
2019-11-30 18:16:38 GMT 49.145432 2.120217 4,600 237 252 -1024
2019-11-30 18:16:34 GMT 49.146595 2.123108 4,650 243 254 -1024
2019-11-30 18:16:31 GMT 49.148300 2.128038 4,700 249 256 -1024
2019-11-30 18:16:28 GMT 49.149761 2.133950 4,800 253 259 -960
2019-11-30 18:16:25 GMT 49.151016 2.140021 4,825 253 259 -960
2019-11-30 18:16:22 GMT 49.152458 2.147032 4,875 253 260 -1024
2019-11-30 18:16:17 GMT 49.153717 2.153103 5,000 253 259 -960
2019-11-30 18:16:14 GMT 49.154785 2.158380 5,000 253 259 -896
2019-11-30 18:16:09 GMT 49.156723 2.167687 5,075 253 259 -960
2019-11-30 18:16:06 GMT 49.158234 2.175076 5,150 253 259 -960
2019-11-30 18:16:03 GMT 49.159119 2.179413 5,200 253 260 -960
2019-11-30 18:15:58 GMT 49.160889 2.187970 5,275 253 260 -960
2019-11-30 18:15:55 GMT 49.162048 2.193507 5,400 253 260 -960
2019-11-30 18:15:52 GMT 49.162655 2.196687 5,400 253 260 -960
2019-11-30 18:15:49 GMT 49.164097 2.204204 5,400 253 260 -960
2019-11-30 18:15:46 GMT 49.164845 2.207457 5,475 253 261 -960
2019-11-30 18:15:43 GMT 49.165833 2.212266 5,525 253 261 -960
2019-11-30 18:15:40 GMT 49.167892 2.222478 5,700 254 261 -960
2019-11-30 18:15:34 GMT 49.170547 2.235859 5,700 254 261 -960
2019-11-30 18:15:31 GMT 49.170547 2.235859 5,750 255 262 -1216
2019-11-30 18:15:28 GMT 49.171371 2.240507 5,800 256 261 -1216
2019-11-30 18:15:24 GMT 49.172619 2.248222 5,900 259 262 -1344
2019-11-30 18:15:20 GMT 49.173363 2.253571 5,975 263 262 -1344
2019-11-30 18:15:13 GMT 49.174526 2.273953 6,200 269 264 -1280
2019-11-30 18:15:09 GMT 49.174526 2.273953 6,200 269 264 -1280
2019-11-30 18:15:05 GMT 49.174713 2.281687 6,400 269 264 -1216
2019-11-30 18:15:02 GMT 49.174850 2.288114 6,325 269 264 -1216
2019-11-30 18:14:59 GMT 49.174946 2.292962 6,425 269 264 -1216
2019-11-30 18:14:55 GMT 49.175125 2.300157 6,550 268 264 -1472
2019-11-30 18:14:52 GMT 49.175217 2.305720 6,575 269 264 -1536
2019-11-30 18:14:49 GMT 49.175354 2.311354 6,650 269 264 -1600
2019-11-30 18:14:45 GMT 49.175537 2.319735 6,775 269 263 -1600
2019-11-30 18:14:42 GMT 49.175720 2.326285 7,000 269 263 -1536
2019-11-30 18:14:39 GMT 49.175812 2.330299 6,925 269 263 -1472
2019-11-30 18:14:35 GMT 49.176132 2.345088 7,075 269 264 -1344
2019-11-30 18:14:32 GMT 49.176132 2.345088 7,125 269 264 -1280
2019-11-30 18:14:29 GMT 49.176224 2.349947 7,175 269 264 -1216
2019-11-30 18:14:24 GMT 49.176434 2.358447 7,275 269 265 -1280
2019-11-30 18:14:21 GMT 49.176590 2.364525 7,350 269 266 -1344
2019-11-30 18:14:18 GMT 49.176682 2.368469 7,400 268 266 -1408
2019-11-30 18:14:14 GMT 49.176910 2.378399 7,525 268 266 -1536
2019-11-30 18:14:11 GMT 49.177048 2.383681 7,575 268 266 -1408
2019-11-30 18:14:08 GMT 49.177139 2.387484 7,650 268 266 -1536
2019-11-30 18:14:04 GMT 49.177410 2.397477 7,800 268 266 -1472
2019-11-30 18:14:01 GMT 49.177505 2.401287 7,900 268 266 -1408
2019-11-30 18:13:53 GMT 49.178146 2.425373 8,125 268 266 -1600
2019-11-30 18:13:48 GMT 49.178146 2.425373 8,175 268 266 -1600
2019-11-30 18:13:45 GMT 49.178295 2.430797 8,275 269 266 -1344
2019-11-30 18:13:42 GMT 49.178421 2.436218 8,325 269 266 -1280
2019-11-30 18:13:37 GMT 49.178623 2.445109 8,425 269 267 -1152
2019-11-30 18:13:33 GMT 49.178833 2.454670 8,525 269 268 -1024
2019-11-30 18:13:28 GMT 49.178993 2.462961 8,600 268 270 -960
2019-11-30 18:13:23 GMT 49.179276 2.474598 8,700 268 272 -960
2019-11-30 18:13:17 GMT 49.179520 2.483262 8,775 268 274 -960
2019-11-30 18:13:12 GMT 49.179977 2.502277 8,875 268 276 -832
2019-11-30 18:13:09 GMT 49.179977 2.502277 8,925 268 279 -704
2019-11-30 18:13:02 GMT 49.180439 2.524109 9,025 269 284 -768
2019-11-30 18:12:57 GMT 49.180439 2.524109 9,075 268 286 -704
2019-11-30 18:12:52 GMT 49.180618 2.532842 9,125 269 289 -640
2019-11-30 18:12:49 GMT 49.180763 2.539287 9,175 268 292 -704
2019-11-30 18:12:46 GMT 49.180939 2.545729 9,200 268 292 -832
2019-11-30 18:12:42 GMT 49.181351 2.559533 9,300 268 294 -1408
2019-11-30 18:12:36 GMT 49.182392 2.572752 9,500 258 292 -1792
2019-11-30 18:12:29 GMT 49.183510 2.580269 9,600 249 291 -1792
2019-11-30 18:12:26 GMT 49.184692 2.586153 9,700 251 291 -1792
2019-11-30 18:12:22 GMT 49.186535 2.593424 9,775 248 291 -1792
2019-11-30 18:12:19 GMT 49.188259 2.599495 9,925 247 290 -1984
2019-11-30 18:12:15 GMT 49.190735 2.608408 10,025 248 289 -1984
2019-11-30 18:12:12 GMT 49.192062 2.613197 10,150 247 289 -1984
2019-11-30 18:12:08 GMT 49.193802 2.619394 10,275 247 289 -1920
2019-11-30 18:12:05 GMT 49.197243 2.631804 10,450 248 288 -1856
2019-11-30 18:12:02 GMT 49.197243 2.631804 10,475 248 288 -1792
2019-11-30 18:11:59 GMT 49.199013 2.638237 10,600 248 288 -1600
2019-11-30 18:11:56 GMT 49.200783 2.644669 10,675 248 289 -1344
2019-11-30 18:11:52 GMT 49.202728 2.651790 10,750 248 289 -1088
2019-11-30 18:11:48 GMT 49.204456 2.658113 10,825 248 290 -960
2019-11-30 18:11:44 GMT 49.206459 2.665341 10,875 248 290 -768
2019-11-30 18:11:41 GMT 49.210278 2.679218 10,925 248 291 -448
2019-11-30 18:11:38 GMT 49.210278 2.679218 10,975 248 291 -256
2019-11-30 18:11:35 GMT 49.211746 2.684537 10,975 248 292 -64
2019-11-30 18:11:32 GMT 49.212570 2.687566 10,975 248 293 0
2019-11-30 18:11:26 GMT 49.217587 2.705672 11,000 248 292 0
2019-11-30 18:11:23 GMT 49.217587 2.705672 11,000 248 290 0
2019-11-30 18:11:20 GMT 49.219116 2.711299 11,000 248 290 0
2019-11-30 18:11:16 GMT 49.221176 2.718764 11,000 248 289 0
2019-11-30 18:11:13 GMT 49.222569 2.723742 11,000 248 289 0
2019-11-30 18:11:10 GMT 49.224060 2.729328 11,000 248 289 0
2019-11-30 18:11:07 GMT 49.226395 2.737708 11,000 248 289 0
2019-11-30 18:11:04 GMT 49.227676 2.742427 10,975 248 289 0
2019-11-30 18:11:01 GMT 49.229324 2.748554 10,975 248 289 0
2019-11-30 18:10:55 GMT 49.231705 2.757146 11,000 248 289 0
2019-11-30 18:10:52 GMT 49.233181 2.762628 11,000 248 289 0
2019-11-30 18:10:49 GMT 49.234772 2.768484 11,000 248 289 0
2019-11-30 18:10:45 GMT 49.237335 2.777851 11,000 248 289 0
2019-11-30 18:10:42 GMT 49.238892 2.783626 11,000 248 289 0
2019-11-30 18:10:38 GMT 49.240997 2.791513 10,975 248 289 0
2019-11-30 18:10:35 GMT 49.242416 2.796443 10,975 248 289 0
2019-11-30 18:10:32 GMT 49.243423 2.800213 10,975 248 290 0
2019-11-30 18:10:29 GMT 49.245575 2.808063 10,975 248 290 0
2019-11-30 18:10:25 GMT 49.249832 2.823627 10,975 248 291 0
2019-11-30 18:10:21 GMT 49.249832 2.823627 10,975 248 291 0
2019-11-30 18:10:18 GMT 49.251297 2.828979 11,000 248 291 0
2019-11-30 18:10:14 GMT 49.253174 2.835881 11,000 248 291 0
2019-11-30 18:10:11 GMT 49.254410 2.840388 11,000 248 291 0
2019-11-30 18:10:08 GMT 49.258484 2.855178 10,975 248 291 0
2019-11-30 18:10:04 GMT 49.258484 2.855178 10,975 248 291 0
2019-11-30 18:10:00 GMT 49.260498 2.862572 10,975 248 291 0
2019-11-30 18:09:57 GMT 49.262100 2.868558 10,975 248 291 0
2019-11-30 18:09:54 GMT 49.264023 2.875390 10,975 248 291 0
2019-11-30 18:09:51 GMT 49.265301 2.880153 11,000 248 291 0
2019-11-30 18:09:45 GMT 49.268234 2.890954 11,000 248 291 0
2019-11-30 18:09:42 GMT 49.270237 2.898295 11,000 248 291 0
2019-11-30 18:09:39 GMT 49.271496 2.902920 11,000 248 291 0
2019-11-30 18:09:35 GMT 49.275124 2.916220 10,975 248 292 0
2019-11-30 18:09:32 GMT 49.277435 2.924687 10,975 248 292 0
2019-11-30 18:09:24 GMT 49.279633 2.932857 10,975 248 292 0
2019-11-30 18:09:21 GMT 49.280411 2.935603 10,975 248 292 0
2019-11-30 18:09:18 GMT 49.282433 2.943035 10,975 248 292 0
2019-11-30 18:09:15 GMT 49.284164 2.949407 10,975 248 292 0
2019-11-30 18:09:09 GMT 49.287048 2.960041 10,975 248 292 0
2019-11-30 18:09:05 GMT 49.289604 2.969344 10,975 248 292 0
2019-11-30 18:09:02 GMT 49.290955 2.974332 10,975 248 292 0
2019-11-30 18:08:59 GMT 49.292267 2.979126 11,000 248 291 0
2019-11-30 18:08:54 GMT 49.295471 2.990817 11,000 248 291 0
2019-11-30 18:08:50 GMT 49.297211 2.997366 11,000 248 291 0
2019-11-30 18:08:46 GMT 49.298767 3.003071 10,975 248 291 0
2019-11-30 18:08:42 GMT 49.300728 3.010182 11,000 248 291 0
2019-11-30 18:08:39 GMT 49.302402 3.016398 11,000 248 291 0
2019-11-30 18:08:34 GMT 49.305176 3.026593 10,975 248 291 0
2019-11-30 18:08:31 GMT 49.306961 3.033072 10,975 248 291 0
2019-11-30 18:08:28 GMT 49.307899 3.036636 10,975 248 291 0
2019-11-30 18:08:23 GMT 49.310783 3.047188 11,000 248 291 0
2019-11-30 18:08:20 GMT 49.313141 3.055889 11,000 248 291 0
2019-11-30 18:08:12 GMT 49.316742 3.069016 10,975 248 291 0
2019-11-30 18:08:09 GMT 49.318588 3.075820 10,975 248 291 0
2019-11-30 18:08:03 GMT 49.321243 3.085538 10,975 248 291 0
2019-11-30 18:08:00 GMT 49.322891 3.091665 10,975 248 291 0
2019-11-30 18:07:57 GMT 49.323864 3.095326 10,975 248 292 0
2019-11-30 18:07:53 GMT 49.326187 3.103849 10,975 248 292 0
2019-11-30 18:07:48 GMT 49.329163 3.114906 10,975 248 291 0
2019-11-30 18:07:43 GMT 49.331173 3.122358 11,000 248 291 0
2019-11-30 18:07:40 GMT 49.333176 3.129513 11,000 248 291 0
2019-11-30 18:07:37 GMT 49.334526 3.134501 11,000 248 291 0
2019-11-30 18:07:33 GMT 49.338089 3.147653 10,975 248 291 0
2019-11-30 18:07:30 GMT 49.340057 3.154978 10,975 248 291 0
2019-11-30 18:07:26 GMT 49.340057 3.154978 10,975 248 291 0
2019-11-30 18:07:23 GMT 49.341740 3.161316 10,975 248 292 0
2019-11-30 18:07:19 GMT 49.345963 3.177162 10,975 248 292 0
2019-11-30 18:07:16 GMT 49.345963 3.177162 10,975 248 292 0
2019-11-30 18:07:13 GMT 49.346954 3.180903 10,975 248 292 0
2019-11-30 18:07:10 GMT 49.348160 3.185401 10,975 248 292 0
2019-11-30 18:07:06 GMT 49.350540 3.194275 10,975 248 292 0
2019-11-30 18:07:03 GMT 49.352169 3.200419 11,000 248 292 0
2019-11-30 18:07:00 GMT 49.353378 3.204972 11,000 248 291 0
2019-11-30 18:06:56 GMT 49.356216 3.215402 11,000 248 292 -64
2019-11-30 18:06:50 GMT 49.358688 3.224699 11,025 248 291 -576
2019-11-30 18:06:47 GMT 49.360222 3.230414 11,025 248 291 -320
2019-11-30 18:06:44 GMT 49.361713 3.235907 11,025 248 291 -512
2019-11-30 18:06:41 GMT 49.363312 3.241812 11,075 248 291 -768
2019-11-30 18:06:38 GMT 49.364777 3.247164 11,125 248 293 -960
2019-11-30 18:06:35 GMT 49.367622 3.257880 11,200 248 291 -960
2019-11-30 18:06:29 GMT 49.369675 3.265475 11,250 248 291 -960
2019-11-30 18:06:26 GMT 49.372700 3.276745 11,350 248 291 -960
2019-11-30 18:06:20 GMT 49.374046 3.281732 11,400 248 291 -960
2019-11-30 18:06:16 GMT 49.376377 3.290333 11,475 248 291 -960
2019-11-30 18:06:12 GMT 49.378284 3.297416 11,550 248 291 -960
2019-11-30 18:06:08 GMT 49.379913 3.303560 11,600 248 291 -960
2019-11-30 18:06:05 GMT 49.381897 3.310899 11,650 248 291 -960
2019-11-30 18:06:02 GMT 49.383312 3.316209 11,700 248 291 -960
2019-11-30 18:05:58 GMT 49.386105 3.326617 11,775 248 294 -960
2019-11-30 18:05:54 GMT 49.387894 3.333224 11,850 248 294 -960
2019-11-30 18:05:51 GMT 49.388664 3.336085 11,875 248 295 -896
2019-11-30 18:05:47 GMT 49.394165 3.356746 11,975 248 296 -960
2019-11-30 18:05:42 GMT 49.394165 3.356746 12,025 249 296 -960
2019-11-30 18:05:39 GMT 49.394897 3.359563 12,075 248 296 -960
2019-11-30 18:05:36 GMT 49.396545 3.365760 12,125 248 296 -960
2019-11-30 18:05:32 GMT 49.399017 3.375127 12,200 248 297 -960
2019-11-30 18:05:28 GMT 49.400864 3.382127 12,300 248 298 -960
2019-11-30 18:05:21 GMT 49.406170 3.401931 12,400 248 298 -960
2019-11-30 18:05:18 GMT 49.406170 3.401931 12,475 248 298 -960
2019-11-30 18:05:11 GMT 49.410049 3.416396 12,550 248 297 -960
2019-11-30 18:05:08 GMT 49.411560 3.421960 12,625 248 297 -960
2019-11-30 18:05:05 GMT 49.413345 3.428579 12,675 248 297 -896
2019-11-30 18:05:01 GMT 49.415543 3.436749 12,700 248 297 -960
2019-11-30 18:04:57 GMT 49.417145 3.443017 12,775 251 297 -960
2019-11-30 18:04:53 GMT 49.419064 3.451225 12,950 253 297 -960
2019-11-30 18:04:50 GMT 49.420349 3.457524 12,900 254 297 -960
2019-11-30 18:04:47 GMT 49.421345 3.462573 12,975 256 298 -960
2019-11-30 18:04:44 GMT 49.422638 3.469778 13,000 256 298 -960
2019-11-30 18:04:41 GMT 49.423534 3.475077 13,075 256 298 -960
2019-11-30 18:04:38 GMT 49.425659 3.487596 15,050 256 305 -960
2019-11-30 18:04:31 GMT 49.427078 3.495836 13,225 256 299 -960
2019-11-30 18:04:27 GMT 49.428635 3.505000 13,300 256 300 -960
2019-11-30 18:04:19 GMT 49.432285 3.526463 13,450 256 301 -960
2019-11-30 18:04:10 GMT 49.435589 3.545615 13,600 256 302 -960
2019-11-30 18:04:07 GMT 49.435589 3.545615 13,625 256 302 -960
2019-11-30 18:04:01 GMT 49.437469 3.556607 13,700 256 304 -960
2019-11-30 18:03:58 GMT 49.438751 3.564124 13,750 256 304 -960
2019-11-30 18:03:49 GMT 49.441956 3.583422 13,975 256 306 -960
2019-11-30 18:03:46 GMT 49.442852 3.588595 13,975 256 306 -960
2019-11-30 18:03:42 GMT 49.444061 3.595796 14,025 256 306 -1024
2019-11-30 18:03:38 GMT 49.445644 3.605149 14,100 256 306 -960
2019-11-30 18:03:34 GMT 49.447311 3.615152 14,150 256 306 -960
2019-11-30 18:03:31 GMT 49.448181 3.620429 14,200 256 307 -960
2019-11-30 18:03:28 GMT 49.450581 3.634025 14,325 254 306 -960
2019-11-30 18:03:21 GMT 49.452068 3.641819 14,375 254 307 -960
2019-11-30 18:03:18 GMT 49.453445 3.648690 14,400 254 307 -960
2019-11-30 18:03:15 GMT 49.454224 3.652593 14,500 254 308 -960
2019-11-30 18:03:12 GMT 49.456100 3.662206 14,525 254 307 -960
2019-11-30 18:03:08 GMT 49.457516 3.669508 14,650 254 310 -960
2019-11-30 18:03:05 GMT 49.458492 3.674556 14,625 254 309 -960
2019-11-30 18:03:02 GMT 49.459808 3.681143 14,675 254 309 -960
2019-11-30 18:02:59 GMT 49.460907 3.686925 14,725 254 309 -1024
2019-11-30 18:02:55 GMT 49.462589 3.695489 14,800 254 310 -1024
2019-11-30 18:02:52 GMT 49.463753 3.701428 14,925 254 310 -576
2019-11-30 18:02:49 GMT 49.465256 3.709042 14,975 254 310 -320
2019-11-30 18:02:45 GMT 49.466858 3.717282 14,950 254 310 -320
2019-11-30 18:02:42 GMT 49.468002 3.723137 14,975 254 310 0
2019-11-30 18:02:38 GMT 49.471203 3.739434 14,975 254 310 0
2019-11-30 18:02:35 GMT 49.471203 3.739434 14,975 254 310 0
2019-11-30 18:02:30 GMT 49.472691 3.747006 14,975 254 309 0
2019-11-30 18:02:27 GMT 49.475391 3.760739 14,975 254 322 -448
2019-11-30 18:02:20 GMT 49.478001 3.774249 14,975 254 308 0
2019-11-30 18:02:13 GMT 49.480133 3.785151 14,975 254 308 -64
2019-11-30 18:02:09 GMT 49.481583 3.792733 15,000 254 308 -64
2019-11-30 18:02:06 GMT 49.482796 3.799043 15,000 254 310 -64
2019-11-30 18:02:03 GMT 49.484142 3.805798 15,000 254 322 -448
2019-11-30 18:01:59 GMT 49.487728 3.824281 15,000 254 311 0
2019-11-30 18:01:55 GMT 49.487728 3.824281 15,000 254 314 -64
2019-11-30 18:01:51 GMT 49.489014 3.830904 15,000 254 316 -192
2019-11-30 18:01:47 GMT 49.490383 3.837940 15,000 254 321 -384
2019-11-30 18:01:44 GMT 49.491623 3.844420 15,025 254 321 -448
2019-11-30 18:01:40 GMT 49.493546 3.854322 15,050 254 322 -448
2019-11-30 18:01:37 GMT 49.494759 3.860655 15,050 254 324 -576
2019-11-30 18:01:33 GMT 49.496292 3.868416 15,150 254 333 -512
2019-11-30 18:01:27 GMT 49.499088 3.882776 15,350 254 336 -640
2019-11-30 18:01:24 GMT 49.500626 3.890719 15,200 254 336 -640
2019-11-30 18:01:21 GMT 49.502209 3.898885 15,225 254 338 -832
2019-11-30 18:01:17 GMT 49.503479 3.905567 15,250 254 340 -896
2019-11-30 18:01:14 GMT 49.504814 3.912469 15,300 254 342 -1152
2019-11-30 18:01:11 GMT 49.508194 3.929853 15,425 254 345 -1280
2019-11-30 18:01:07 GMT 49.508194 3.929853 15,500 254 346 -1280
2019-11-30 18:01:04 GMT 49.509422 3.936223 15,550 254 346 -1280
2019-11-30 18:01:01 GMT 49.511051 3.944686 15,625 254 346 -1280
2019-11-30 18:00:57 GMT 49.512680 3.953148 15,775 254 346 -1280
2019-11-30 18:00:53 GMT 49.514603 3.962956 15,800 254 348 -1216
2019-11-30 18:00:50 GMT 49.515701 3.968522 15,975 254 348 -1216
2019-11-30 18:00:47 GMT 49.517010 3.975418 15,925 254 347 -1280
2019-11-30 18:00:44 GMT 49.518547 3.983435 16,000 254 348 -1216
2019-11-30 18:00:40 GMT 49.520508 3.993386 16,050 254 348 -1280
2019-11-30 18:00:36 GMT 49.522083 4.001547 16,150 254 348 -1280
2019-11-30 18:00:33 GMT 49.525040 4.016948 16,275 254 350 -1280
2019-11-30 18:00:30 GMT 49.525040 4.016948 16,350 254 348 -1280
2019-11-30 18:00:26 GMT 49.526741 4.025747 16,350 254 349 -1280
2019-11-30 18:00:20 GMT 49.529579 4.040445 16,625 254 350 -1280
2019-11-30 18:00:17 GMT 49.531448 4.050124 16,600 254 350 -1280
2019-11-30 18:00:13 GMT 49.532822 4.057280 16,725 254 350 -1280
2019-11-30 18:00:10 GMT 49.533966 4.063207 16,800 254 350 -1280
2019-11-30 18:00:06 GMT 49.536236 4.074963 16,800 254 351 -1280
2019-11-30 18:00:03 GMT 49.537354 4.080698 16,925 254 351 -1280
2019-11-30 18:00:00 GMT 49.539215 4.090477 16,975 254 351 -1216
2019-11-30 17:59:56 GMT 49.540558 4.097394 17,050 254 351 -1216
2019-11-30 17:59:51 GMT 49.544312 4.117126 17,250 254 352 -1280
2019-11-30 17:59:45 GMT 49.545361 4.122620 17,250 254 352 -1280
2019-11-30 17:59:42 GMT 49.546757 4.129820 17,375 254 353 -1280
2019-11-30 17:59:39 GMT 49.549805 4.145604 17,425 254 355 -1216
2019-11-30 17:59:36 GMT 49.549805 4.145604 17,475 254 355 -1216
2019-11-30 17:59:32 GMT 49.551411 4.154020 18,200 254 361 -1280
2019-11-30 17:59:29 GMT 49.554531 4.170054 17,625 254 356 -1216
2019-11-30 17:59:26 GMT 49.554531 4.170054 17,675 254 357 -1216
2019-11-30 17:59:21 GMT 49.556763 4.181888 17,875 254 358 -1280
2019-11-30 17:59:18 GMT 49.558914 4.193163 17,875 254 358 -1280
2019-11-30 17:59:15 GMT 49.559555 4.196561 17,875 254 358 -1280
2019-11-30 17:59:12 GMT 49.561188 4.205166 17,975 254 360 -1280
2019-11-30 17:59:09 GMT 49.562439 4.211739 18,025 254 360 -1280
2019-11-30 17:59:06 GMT 49.564224 4.221135 18,125 254 360 -1280
2019-11-30 17:59:03 GMT 49.565239 4.226619 18,325 254 361 -1280
2019-11-30 17:58:59 GMT 49.567200 4.236892 18,250 254 360 -1216
2019-11-30 17:58:55 GMT 49.568916 4.245919 18,300 254 361 -1280
2019-11-30 17:58:52 GMT 49.570358 4.253787 18,650 254 361 -1216
2019-11-30 17:58:49 GMT 49.571800 4.261211 18,500 254 361 -1280
2019-11-30 17:58:46 GMT 49.573380 4.269706 18,625 254 360 -1216
2019-11-30 17:58:43 GMT 49.574432 4.275272 18,625 254 360 -1216
2019-11-30 17:58:40 GMT 49.575851 4.282644 18,700 254 360 -1216
2019-11-30 17:58:37 GMT 49.577435 4.291275 18,775 254 360 -1280
2019-11-30 17:58:33 GMT 49.578918 4.298907 20,050 254 361 -1472
2019-11-30 17:58:30 GMT 49.580338 4.306496 18,850 254 360 -1280
2019-11-30 17:58:27 GMT 49.581997 4.315326 18,975 254 360 -1344
2019-11-30 17:58:24 GMT 49.584000 4.325939 19,075 254 359 -1344
2019-11-30 17:58:21 GMT 49.585922 4.335913 19,275 254 359 -1280
2019-11-30 17:58:18 GMT 49.587212 4.342569 19,175 254 359 -1344
2019-11-30 17:58:10 GMT 49.589767 4.355790 19,325 254 359 -1280
2019-11-30 17:58:06 GMT 49.591919 4.367138 19,450 254 358 -1216
2019-11-30 17:58:01 GMT 49.594193 4.379017 19,575 254 358 -1216
2019-11-30 17:57:58 GMT 49.596176 4.389183 19,675 254 358 -1216
2019-11-30 17:57:54 GMT 49.597458 4.395905 19,725 254 358 -1216
2019-11-30 17:57:50 GMT 49.599243 4.405301 19,750 254 359 -1280
2019-11-30 17:57:47 GMT 49.600571 4.412347 19,825 254 359 -1408
2019-11-30 17:57:44 GMT 49.601921 4.419473 19,900 254 360 -1472
2019-11-30 17:57:41 GMT 49.603645 4.428604 19,975 254 361 -1472
2019-11-30 17:57:38 GMT 49.604736 4.434646 20,025 254 362 -1472
2019-11-30 17:57:35 GMT 49.606110 4.441891 20,125 254 362 -1472
2019-11-30 17:57:31 GMT 49.608124 4.452643 20,450 254 363 -1472
2019-11-30 17:57:28 GMT 49.609451 4.459582 20,300 254 363 -1472
2019-11-30 17:57:25 GMT 49.611099 4.468544 20,450 254 363 -1472
2019-11-30 17:57:22 GMT 49.612164 4.474034 20,475 255 356 -1472
2019-11-30 17:57:17 GMT 49.614899 4.488710 20,550 254 363 -1472
2019-11-30 17:57:12 GMT 49.616730 4.498468 20,825 254 362 -1472
2019-11-30 17:57:09 GMT 49.618881 4.510177 20,875 255 363 -1536
2019-11-30 17:57:05 GMT 49.620590 4.519315 20,925 255 363 -1536
2019-11-30 17:57:01 GMT 49.621799 4.525773 20,925 255 359 -1472
2019-11-30 17:56:58 GMT 49.623779 4.536342 21,200 254 358 -1408
2019-11-30 17:56:55 GMT 49.624649 4.541040 21,150 254 358 -1408
2019-11-30 17:56:51 GMT 49.626251 4.549641 21,350 255 355 -1408
2019-11-30 17:56:48 GMT 49.628174 4.559832 21,425 255 355 -1408
2019-11-30 17:56:44 GMT 49.630875 4.574505 21,475 255 356 -1408
2019-11-30 17:56:41 GMT 49.630875 4.574505 21,650 255 356 -1408
2019-11-30 17:56:37 GMT 49.633110 4.586718 21,550 255 356 -1408
2019-11-30 17:56:33 GMT 49.634903 4.596405 21,675 255 356 -1408
2019-11-30 17:56:29 GMT 49.636597 4.605657 22,050 255 356 -1472
2019-11-30 17:56:26 GMT 49.638233 4.614629 21,850 255 356 -1472
2019-11-30 17:56:22 GMT 49.639816 4.623166 21,950 255 356 -1472
2019-11-30 17:56:19 GMT 49.641212 4.630737 22,075 255 355 -1408
2019-11-30 17:56:13 GMT 49.643555 4.644181 22,125 255 355 -1408
2019-11-30 17:56:10 GMT 49.644516 4.650483 22,300 274 349 -1536
2019-11-30 17:56:07 GMT 49.645634 4.659020 22,325 263 352 -1472
2019-11-30 17:56:04 GMT 49.646194 4.665701 22,400 264 351 -1472
2019-11-30 17:56:00 GMT 49.646893 4.685595 22,550 275 350 -1536
2019-11-30 17:55:57 GMT 49.646893 4.685595 22,625 273 350 -1536
2019-11-30 17:55:54 GMT 49.646851 4.690873 22,650 273 350 -1536
2019-11-30 17:55:50 GMT 49.646439 4.700775 24,500 276 350 -1536
2019-11-30 17:55:45 GMT 49.645775 4.711873 22,875 276 348 -1472
2019-11-30 17:55:42 GMT 49.645248 4.720579 24,500 276 350 -1536
2019-11-30 17:55:36 GMT 49.644283 4.735627 23,125 276 348 -1472
2019-11-30 17:55:33 GMT 49.643921 4.741757 23,175 276 348 -1472
2019-11-30 17:55:29 GMT 49.643051 4.755056 23,325 276 348 -1536
2019-11-30 17:55:26 GMT 49.642654 4.761311 23,475 276 348 -1536
2019-11-30 17:55:23 GMT 49.642330 4.766136 23,500 276 348 -1536
2019-11-30 17:55:20 GMT 49.641678 4.776378 23,550 276 349 -1472
2019-11-30 17:55:17 GMT 49.641266 4.782233 23,650 276 349 -1472
2019-11-30 17:55:13 GMT 49.640560 4.793008 23,700 276 350 -1408
2019-11-30 17:55:10 GMT 49.640030 4.801170 23,750 276 350 -1472
2019-11-30 17:55:07 GMT 49.639709 4.806085 24,175 276 351 -1472
2019-11-30 17:55:04 GMT 49.638977 4.817577 23,950 276 352 -1472
2019-11-30 17:55:01 GMT 49.637924 4.833045 24,050 276 352 -1472
2019-11-30 17:54:57 GMT 49.637421 4.841068 24,175 277 353 -1472
2019-11-30 17:54:54 GMT 49.637100 4.845477 24,250 276 354 -1472
2019-11-30 17:54:47 GMT 49.636135 4.859372 24,375 276 356 -1472
2019-11-30 17:54:44 GMT 49.635765 4.865013 24,425 276 356 -1536
2019-11-30 17:54:41 GMT 49.635254 4.873105 24,675 277 363 -1728
2019-11-30 17:54:37 GMT 49.633904 4.892331 24,625 276 364 -2688
2019-11-30 17:54:33 GMT 49.633904 4.892331 24,850 277 360 -1408
2019-11-30 17:54:30 GMT 49.633343 4.900422 24,825 276 363 -1664
2019-11-30 17:54:27 GMT 49.632660 4.909443 24,850 277 362 -1472
2019-11-30 17:54:23 GMT 49.631992 4.919945 24,950 277 364 -1856
2019-11-30 17:54:20 GMT 49.630878 4.935831 26,900 276 364 -2432
2019-11-30 17:54:17 GMT 49.630878 4.935831 25,175 276 364 -2368
2019-11-30 17:54:14 GMT 49.630505 4.940953 26,975 276 364 -2944
2019-11-30 17:54:11 GMT 49.629948 4.949267 25,375 276 364 -2752
2019-11-30 17:54:08 GMT 49.629250 4.959808 26,975 276 364 -2944
2019-11-30 17:54:04 GMT 49.628269 4.975099 25,775 276 363 -3008
2019-11-30 17:54:01 GMT 49.628269 4.975099 25,975 276 363 -3072
2019-11-30 17:53:56 GMT 49.627434 4.989055 26,150 276 363 -3008
2019-11-30 17:53:52 GMT 49.626801 4.999141 26,350 275 366 0
2019-11-30 17:53:49 GMT 49.626297 5.008248 26,500 276 363 -1920
2019-11-30 17:53:43 GMT 49.625473 5.021764 26,725 276 363 -1920
2019-11-30 17:53:37 GMT 49.624454 5.039978 26,825 276 364 -960
2019-11-30 17:53:34 GMT 49.623985 5.047772 26,900 276 364 -640
2019-11-30 17:53:31 GMT 49.623707 5.052449 26,925 276 365 -384
2019-11-30 17:53:28 GMT 49.623150 5.062841 26,975 275 367 -64
2019-11-30 17:53:22 GMT 49.621902 5.084357 26,975 275 368 -64
2019-11-30 17:53:19 GMT 49.621902 5.084357 27,000 275 368 0
2019-11-30 17:53:15 GMT 49.621288 5.095652 27,000 275 368 0
2019-11-30 17:53:12 GMT 49.620850 5.103222 27,000 276 368 0
2019-11-30 17:53:09 GMT 49.620621 5.108353 27,000 276 368 -192
2019-11-30 17:53:06 GMT 49.619476 5.127652 27,000 275 367 0
2019-11-30 17:53:03 GMT 49.619476 5.127652 27,000 264 368 0
2019-11-30 17:52:57 GMT 49.618401 5.149247 27,000 271 368 0
2019-11-30 17:52:54 GMT 49.618149 5.156852 27,000 273 368 64
2019-11-30 17:52:48 GMT 49.618057 5.165237 27,000 265 367 0
2019-11-30 17:52:45 GMT 49.618286 5.172970 27,000 263 368 0
2019-11-30 17:52:42 GMT 49.618698 5.179837 26,975 262 369 0
2019-11-30 17:52:39 GMT 49.619476 5.187571 26,975 227 382 0
2019-11-30 17:52:36 GMT 49.620392 5.194293 26,975 227 382 0
2019-11-30 17:52:33 GMT 49.622078 5.203659 27,000 253 371 -64
2019-11-30 17:52:30 GMT 49.623383 5.209672 27,000 248 373 -64
2019-11-30 17:52:27 GMT 49.629433 5.229938 27,000 242 375 0
2019-11-30 17:52:23 GMT 49.629433 5.229938 27,000 240 376 128
2019-11-30 17:52:20 GMT 49.632156 5.237081 27,000 238 376 0
2019-11-30 17:52:15 GMT 49.635910 5.245466 26,975 223 385 0
2019-11-30 17:52:12 GMT 49.639442 5.252504 26,975 226 383 128
2019-11-30 17:52:08 GMT 49.643234 5.259199 26,975 227 382 0
2019-11-30 17:52:04 GMT 49.648335 5.267276 26,975 223 385 0
2019-11-30 17:52:01 GMT 49.652390 5.273076 26,975 222 385 0
2019-11-30 17:51:57 GMT 49.658981 5.281460 27,000 214 390 0
2019-11-30 17:51:54 GMT 49.662579 5.285686 27,000 215 389 0
2019-11-30 17:51:51 GMT 49.666397 5.289769 27,000 214 389 0
2019-11-30 17:51:47 GMT 49.673798 5.297414 27,000 214 389 0
2019-11-30 17:51:44 GMT 49.677753 5.301423 27,000 214 390 64
2019-11-30 17:51:41 GMT 49.688095 5.312034 26,975 214 390 0
2019-11-30 17:51:37 GMT 49.688095 5.312034 26,975 214 390 0
2019-11-30 17:51:34 GMT 49.696327 5.320501 26,975 214 390 0
2019-11-30 17:51:28 GMT 49.707275 5.331766 27,000 214 388 64
2019-11-30 17:51:25 GMT 49.707275 5.331766 27,000 214 390 0
2019-11-30 17:51:22 GMT 49.715275 5.340024 27,000 214 390 0
2019-11-30 17:51:19 GMT 49.719955 5.344776 27,000 214 389 128
2019-11-30 17:51:16 GMT 49.719955 5.344776 26,975 214 389 0
2019-11-30 17:51:13 GMT 49.723980 5.348931 27,000 214 388 0
2019-11-30 17:51:10 GMT 49.728333 5.353377 26,975 214 389 0
2019-11-30 17:51:07 GMT 49.732639 5.357839 26,975 214 389 64
2019-11-30 17:51:04 GMT 49.738495 5.363786 26,975 214 389 64
2019-11-30 17:51:01 GMT 49.742386 5.367761 26,975 214 389 0
2019-11-30 17:50:58 GMT 49.747467 5.373037 26,975 214 388 64
2019-11-30 17:50:55 GMT 49.751213 5.376917 26,975 214 395 -192
2019-11-30 17:50:51 GMT 49.762985 5.389011 26,975 214 389 0
2019-11-30 17:50:47 GMT 49.762985 5.389011 26,975 214 388 0
2019-11-30 17:50:43 GMT 49.769623 5.395805 26,975 214 388 0
2019-11-30 17:50:37 GMT 49.777588 5.403972 26,975 214 386 0
2019-11-30 17:50:34 GMT 49.789948 5.416705 26,975 214 385 0
2019-11-30 17:50:30 GMT 49.794182 5.421011 26,975 214 386 0
2019-11-30 17:50:26 GMT 49.794182 5.421011 26,975 214 387 0
2019-11-30 17:50:21 GMT 49.802261 5.429414 27,025 214 387 0
2019-11-30 17:50:17 GMT 49.808395 5.435775 26,975 214 387 0
2019-11-30 17:50:14 GMT 49.812057 5.439606 27,000 214 387 0
2019-11-30 17:50:11 GMT 49.817184 5.444810 26,975 214 387 0
2019-11-30 17:50:08 GMT 49.820709 5.448424 26,975 214 388 -64
2019-11-30 17:50:05 GMT 49.824440 5.452262 26,975 214 388 -192
2019-11-30 17:50:02 GMT 49.829514 5.457533 27,000 214 388 -192
2019-11-30 17:49:59 GMT 49.834167 5.462301 27,025 214 390 -128
2019-11-30 17:49:56 GMT 49.838654 5.466855 27,025 214 389 -128
2019-11-30 17:49:53 GMT 49.849022 5.477501 29,050 214 399 -4928
2019-11-30 17:49:50 GMT 49.849022 5.477501 27,025 214 399 -448
2019-11-30 17:49:47 GMT 49.853306 5.481881 27,025 214 393 -192
2019-11-30 17:49:44 GMT 49.857330 5.486008 27,025 214 393 -192
2019-11-30 17:49:40 GMT 49.863419 5.492297 27,050 214 397 -320
2019-11-30 17:49:37 GMT 49.873856 5.502994 27,075 214 401 -704
2019-11-30 17:49:34 GMT 49.873856 5.502994 27,075 214 405 -1152
2019-11-30 17:49:31 GMT 49.877136 5.506377 27,150 214 407 -1280
2019-11-30 17:49:28 GMT 49.886993 5.516582 27,825 214 409 -1536
2019-11-30 17:49:25 GMT 49.886993 5.516582 27,275 214 409 -1600
2019-11-30 17:49:22 GMT 49.891113 5.520919 27,350 215 411 -1984
2019-11-30 17:49:18 GMT 49.896549 5.526643 27,425 215 411 -2304
2019-11-30 17:49:15 GMT 49.903488 5.533917 28,725 214 401 -5056
2019-11-30 17:49:12 GMT 49.912125 5.542964 27,750 214 411 -3264
2019-11-30 17:49:09 GMT 49.912125 5.542964 28,000 214 409 -3840
2019-11-30 17:49:06 GMT 49.916565 5.547590 28,250 214 408 -4032
2019-11-30 17:49:03 GMT 49.920639 5.551854 28,350 214 405 -4096
2019-11-30 17:49:00 GMT 49.924526 5.555816 29,150 214 402 -1344
2019-11-30 17:48:57 GMT 49.930626 5.562200 28,775 214 399 -5184
2019-11-30 17:48:53 GMT 49.936260 5.568064 28,950 214 399 -5184
2019-11-30 17:48:50 GMT 49.942474 5.574550 29,450 214 398 -4736
2019-11-30 17:48:47 GMT 49.946457 5.578669 29,900 214 397 -4160
2019-11-30 17:48:44 GMT 49.949570 5.581922 30,425 214 398 -1664
2019-11-30 17:48:41 GMT 49.954651 5.587198 30,225 214 396 -3456
2019-11-30 17:48:38 GMT 49.959164 5.591818 30,325 214 398 -1664
2019-11-30 17:48:34 GMT 49.965134 5.597968 30,600 214 402 -1408
2019-11-30 17:48:31 GMT 49.970707 5.603770 30,475 214 398 -1664
2019-11-30 17:48:28 GMT 49.974609 5.607798 30,875 214 402 -1280
2019-11-30 17:48:25 GMT 49.979462 5.612857 30,700 214 402 -1408
2019-11-30 17:48:22 GMT 49.984955 5.618542 30,750 214 402 -1472
2019-11-30 17:48:18 GMT 49.991821 5.625723 31,100 214 402 -1472
2019-11-30 17:48:15 GMT 49.994823 5.628860 30,950 214 402 -1344
2019-11-30 17:48:11 GMT 50.002029 5.636348 31,100 214 402 -1344
2019-11-30 17:48:08 GMT 50.005692 5.640178 31,100 214 402 -1280
2019-11-30 17:48:05 GMT 50.009300 5.644003 31,200 214 402 -1344
2019-11-30 17:48:02 GMT 50.014984 5.649864 31,375 214 402 -1344
2019-11-30 17:47:59 GMT 50.019775 5.654841 31,300 214 402 -1408
2019-11-30 17:47:56 GMT 50.023777 5.658998 31,325 214 402 -1344
2019-11-30 17:47:53 GMT 50.033043 5.668648 31,500 214 402 -1344
2019-11-30 17:47:47 GMT 50.044773 5.680822 31,625 214 404 -1472
2019-11-30 17:47:43 GMT 50.044773 5.680822 31,750 214 404 -1280
2019-11-30 17:47:40 GMT 50.048264 5.684460 31,850 214 404 -1280
2019-11-30 17:47:37 GMT 50.054535 5.691063 31,850 214 404 -1024
2019-11-30 17:47:34 GMT 50.058334 5.695038 31,875 214 404 -832
2019-11-30 17:47:31 GMT 50.061401 5.698218 31,925 214 405 -640
2019-11-30 17:47:27 GMT 50.067627 5.704723 31,950 214 404 0
2019-11-30 17:47:24 GMT 50.073257 5.710578 32,000 214 404 0
2019-11-30 17:47:21 GMT 50.080803 5.718458 31,975 214 404 0
2019-11-30 17:47:17 GMT 50.090721 5.728850 32,000 215 404 0
2019-11-30 17:47:14 GMT 50.090721 5.728850 31,975 215 404 0
2019-11-30 17:47:10 GMT 50.095551 5.733851 32,000 215 404 0
2019-11-30 17:47:07 GMT 50.099380 5.737907 32,000 215 404 0
2019-11-30 17:47:04 GMT 50.104080 5.742806 32,000 215 404 0
2019-11-30 17:47:01 GMT 50.109467 5.748452 32,000 215 404 0
2019-11-30 17:46:58 GMT 50.113995 5.753199 32,000 215 404 0
2019-11-30 17:46:55 GMT 50.118000 5.757430 32,000 215 404 0
2019-11-30 17:46:52 GMT 50.122833 5.762474 32,000 215 404 0
2019-11-30 17:46:49 GMT 50.126816 5.766666 32,000 215 404 0
2019-11-30 17:46:46 GMT 50.132034 5.772159 32,000 215 404 0
2019-11-30 17:46:43 GMT 50.137833 5.778215 32,000 215 404 0
2019-11-30 17:46:40 GMT 50.141327 5.781844 32,000 215 404 0
2019-11-30 17:46:37 GMT 50.146442 5.787271 32,000 215 404 0
2019-11-30 17:46:34 GMT 50.152542 5.793626 32,000 214 404 0
2019-11-30 17:46:31 GMT 50.156361 5.797589 32,000 214 404 0
2019-11-30 17:46:28 GMT 50.165344 5.807091 32,000 215 405 0
2019-11-30 17:46:22 GMT 50.169998 5.811990 32,000 215 405 0
2019-11-30 17:46:19 GMT 50.175705 5.817984 32,000 215 405 0
2019-11-30 17:46:16 GMT 50.179459 5.821887 32,000 215 405 0
2019-11-30 17:46:13 GMT 50.183079 5.825723 32,000 215 405 64
2019-11-30 17:46:10 GMT 50.189117 5.832006 31,975 214 406 64
2019-11-30 17:46:07 GMT 50.194382 5.837571 31,975 215 406 0
2019-11-30 17:46:04 GMT 50.197418 5.840718 31,975 215 406 0
2019-11-30 17:46:01 GMT 50.207054 5.850888 31,975 214 406 0
2019-11-30 17:45:58 GMT 50.207054 5.850888 31,975 214 407 0
2019-11-30 17:45:55 GMT 50.211502 5.855568 31,975 214 407 0
2019-11-30 17:45:52 GMT 50.216858 5.861206 31,975 215 404 0
2019-11-30 17:45:49 GMT 50.221996 5.866625 31,975 214 407 0
2019-11-30 17:45:46 GMT 50.225830 5.870602 31,975 215 405 0
2019-11-30 17:45:43 GMT 50.230377 5.875384 31,975 215 404 0
2019-11-30 17:45:40 GMT 50.235764 5.881083 31,975 215 405 0
2019-11-30 17:45:37 GMT 50.244781 5.890551 32,000 215 404 0
2019-11-30 17:45:34 GMT 50.244781 5.890551 32,000 215 404 0
2019-11-30 17:45:31 GMT 50.254211 5.900549 32,000 215 404 0
2019-11-30 17:45:28 GMT 50.254211 5.900549 32,000 215 404 0
2019-11-30 17:45:25 GMT 50.262177 5.908838 32,000 215 404 0
2019-11-30 17:45:22 GMT 50.262177 5.908838 31,975 215 404 0
2019-11-30 17:45:19 GMT 50.267570 5.914579 31,975 215 403 0
2019-11-30 17:45:16 GMT 50.271423 5.918595 32,000 215 403 0
2019-11-30 17:45:13 GMT 50.277439 5.924971 31,975 215 404 0
2019-11-30 17:45:10 GMT 50.282867 5.930666 31,975 215 404 0
2019-11-30 17:45:07 GMT 50.287170 5.935219 31,975 215 404 0
2019-11-30 17:45:04 GMT 50.290058 5.938259 31,975 215 404 64
2019-11-30 17:45:01 GMT 50.295643 5.944123 31,975 215 404 0
2019-11-30 17:44:58 GMT 50.305885 5.954961 31,975 215 404 0
2019-11-30 17:44:52 GMT 50.309097 5.958348 31,975 215 404 0
2019-11-30 17:44:49 GMT 50.313766 5.963263 31,975 215 405 -128
2019-11-30 17:44:46 GMT 50.318390 5.968178 32,000 215 405 -256
2019-11-30 17:44:43 GMT 50.323700 5.973744 32,000 215 405 -256
2019-11-30 17:44:40 GMT 50.327728 5.978008 32,050 215 405 -192
2019-11-30 17:44:36 GMT 50.338749 5.989553 32,050 214 402 320
2019-11-30 17:44:33 GMT 50.343201 5.994271 32,000 215 404 384
2019-11-30 17:44:30 GMT 50.348618 6.000020 31,975 215 406 384
2019-11-30 17:44:27 GMT 50.348618 6.000020 31,950 215 407 384
2019-11-30 17:44:24 GMT 50.353775 6.005402 31,925 215 410 192
2019-11-30 17:44:21 GMT 50.356613 6.008437 31,900 215 414 0
2019-11-30 17:44:18 GMT 50.362564 6.014726 31,925 215 415 0
2019-11-30 17:44:15 GMT 50.366455 6.018773 31,950 214 417 192
2019-11-30 17:44:12 GMT 50.371857 6.024555 36,800 215 417 192
2019-11-30 17:44:09 GMT 50.375153 6.028005 31,950 214 417 192
2019-11-30 17:44:06 GMT 50.382751 6.035975 31,925 214 417 192
2019-11-30 17:44:03 GMT 50.385223 6.038650 31,925 214 417 128
2019-11-30 17:44:00 GMT 50.391403 6.045082 31,900 214 417 320
2019-11-30 17:43:56 GMT 50.397362 6.051314 31,900 214 417 0
2019-11-30 17:43:53 GMT 50.408020 6.062646 31,900 214 417 448
2019-11-30 17:43:50 GMT 50.408020 6.062646 31,875 215 416 448
2019-11-30 17:43:44 GMT 50.416119 6.071134 31,825 215 410 448
2019-11-30 17:43:41 GMT 50.426502 6.082195 31,800 215 410 512
2019-11-30 17:43:38 GMT 50.426502 6.082195 31,775 215 409 576
2019-11-30 17:43:35 GMT 50.430225 6.086203 31,750 215 408 896
2019-11-30 17:43:32 GMT 50.441677 6.098748 31,700 215 406 -64
2019-11-30 17:43:29 GMT 50.441677 6.098748 31,700 215 405 0
2019-11-30 17:43:26 GMT 50.444099 6.101346 31,675 215 406 -1344
2019-11-30 17:43:23 GMT 50.453316 6.111368 31,725 215 406 -2368
2019-11-30 17:43:17 GMT 50.463959 6.122926 32,000 215 403 -3584
2019-11-30 17:43:14 GMT 50.463959 6.122926 32,125 215 401 -4032
2019-11-30 17:43:11 GMT 50.467621 6.126902 32,425 215 399 -4288
2019-11-30 17:43:08 GMT 50.471924 6.131528 32,825 215 388 -4928
2019-11-30 17:43:05 GMT 50.477196 6.137275 33,475 215 393 -4928
2019-11-30 17:43:02 GMT 50.481583 6.141936 32,975 215 393 -4928
2019-11-30 17:42:59 GMT 50.485622 6.146257 33,250 215 390 -4928
2019-11-30 17:42:56 GMT 50.490696 6.151601 33,550 215 385 -4800
2019-11-30 17:42:53 GMT 50.494141 6.155313 33,650 215 383 -4736
2019-11-30 17:42:50 GMT 50.499023 6.160439 34,300 215 381 -4544
2019-11-30 17:42:47 GMT 50.502987 6.164666 34,225 215 380 -4608
2019-11-30 17:42:44 GMT 50.508636 6.170702 34,525 215 379 -4672
2019-11-30 17:42:41 GMT 50.512665 6.174967 34,975 215 378 -4480
2019-11-30 17:42:38 GMT 50.517185 6.179810 35,000 215 375 -4544
2019-11-30 17:42:34 GMT 50.522781 6.185809 35,300 215 375 -4480
2019-11-30 17:42:31 GMT 50.526356 6.189608 35,450 215 373 -3712
2019-11-30 17:42:28 GMT 50.530079 6.193617 35,750 215 368 -3840
2019-11-30 17:42:25 GMT 50.534271 6.198219 36,075 215 371 -3968
2019-11-30 17:42:22 GMT 50.540359 6.204746 36,275 215 369 -3904
2019-11-30 17:42:16 GMT 50.551449 6.216629 36,525 215 365 -4224
2019-11-30 17:42:13 GMT 50.556431 6.221973 37,100 215 365 -4160
2019-11-30 17:42:10 GMT 50.556431 6.221973 37,325 215 358 -3584
2019-11-30 17:42:07 GMT 50.559269 6.225017 37,200 215 358 -3584
2019-11-30 17:42:04 GMT 50.564896 6.231055 37,375 215 358 -3456
2019-11-30 17:42:01 GMT 50.568581 6.235038 37,525 215 374 0
2019-11-30 17:41:58 GMT 50.572071 6.238824 37,625 215 355 -2176
2019-11-30 17:41:55 GMT 50.576118 6.243129 37,775 215 355 -1728
2019-11-30 17:41:52 GMT 50.580402 6.247806 37,875 215 355 -1088
2019-11-30 17:41:49 GMT 50.589798 6.257870 38,000 215 356 0
2019-11-30 17:41:46 GMT 50.589798 6.257870 37,975 215 356 -64
2019-11-30 17:41:43 GMT 50.592453 6.260761 37,975 215 359 0
2019-11-30 17:41:40 GMT 50.596695 6.265325 38,000 215 359 0
2019-11-30 17:41:37 GMT 50.600922 6.269869 38,000 215 360 0
2019-11-30 17:41:34 GMT 50.605495 6.274752 38,000 215 363 -64
2019-11-30 17:41:31 GMT 50.610195 6.279726 38,000 215 363 -64
2019-11-30 17:41:28 GMT 50.613098 6.282879 38,000 215 402 0
2019-11-30 17:41:25 GMT 50.621521 6.291913 38,000 215 368 -192
2019-11-30 17:41:22 GMT 50.621521 6.291913 38,000 215 370 -192
2019-11-30 17:41:19 GMT 50.626007 6.296756 38,025 215 373 -128
2019-11-30 17:41:16 GMT 50.630539 6.301599 38,025 215 373 -128
2019-11-30 17:41:13 GMT 50.635799 6.307266 38,025 215 374 0
2019-11-30 17:41:10 GMT 50.638687 6.310384 38,050 215 376 64
2019-11-30 17:41:07 GMT 50.643574 6.315654 38,025 215 377 192
2019-11-30 17:41:04 GMT 50.648788 6.321221 38,000 215 386 256
2019-11-30 17:41:01 GMT 50.656494 6.329498 37,975 215 387 320
2019-11-30 17:40:58 GMT 50.656494 6.329498 37,950 215 388 320
2019-11-30 17:40:55 GMT 50.661255 6.334630 37,925 215 402 -192
2019-11-30 17:40:52 GMT 50.670227 6.344315 37,925 215 397 0
2019-11-30 17:40:49 GMT 50.670227 6.344315 37,925 215 400 -128
2019-11-30 17:40:46 GMT 50.679108 6.353883 37,950 215 402 -192
2019-11-30 17:40:43 GMT 50.679108 6.353883 38,000 215 403 0
2019-11-30 17:40:40 GMT 50.684772 6.360016 38,000 215 403 0
2019-11-30 17:40:37 GMT 50.688629 6.364202 38,000 215 403 0
2019-11-30 17:40:34 GMT 50.693848 6.369843 38,000 215 404 0
2019-11-30 17:40:31 GMT 50.698318 6.374664 38,000 215 404 0
2019-11-30 17:40:28 GMT 50.707302 6.384277 38,000 215 404 64
2019-11-30 17:40:25 GMT 50.707302 6.384277 38,000 215 404 64
2019-11-30 17:40:22 GMT 50.712067 6.389441 38,000 215 404 0
2019-11-30 17:40:19 GMT 50.716370 6.394117 38,000 215 403 64
2019-11-30 17:40:16 GMT 50.721268 6.399388 38,000 215 403 64
2019-11-30 17:40:13 GMT 50.724289 6.402654 38,000 215 401 64
2019-11-30 17:40:10 GMT 50.729187 6.407924 38,000 215 402 0
2019-11-30 17:40:07 GMT 50.733978 6.413116 38,000 215 402 0
2019-11-30 17:40:04 GMT 50.740170 6.419830 38,000 215 402 0
2019-11-30 17:40:01 GMT 50.744568 6.424552 38,000 215 402 0
2019-11-30 17:39:58 GMT 50.748737 6.429062 38,000 215 402 0
2019-11-30 17:39:55 GMT 50.751663 6.432272 38,000 215 402 0
2019-11-30 17:39:52 GMT 50.762329 6.443778 38,000 215 402 64
2019-11-30 17:39:49 GMT 50.766193 6.447983 38,000 215 402 64
2019-11-30 17:39:42 GMT 50.773224 6.455536 37,975 215 401 64
2019-11-30 17:39:39 GMT 50.781788 6.464844 37,975 215 401 64
2019-11-30 17:39:36 GMT 50.781788 6.464844 37,975 215 401 64
2019-11-30 17:39:33 GMT 50.787140 6.470650 37,975 215 401 64
2019-11-30 17:39:30 GMT 50.791077 6.474956 37,975 215 402 0
2019-11-30 17:39:27 GMT 50.796452 6.480713 37,975 215 402 0
2019-11-30 17:39:24 GMT 50.800735 6.485367 37,975 215 402 0
2019-11-30 17:39:21 GMT 50.804459 6.489410 37,950 215 400 0
2019-11-30 17:39:18 GMT 50.809345 6.494675 37,975 215 401 0
2019-11-30 17:39:15 GMT 50.814102 6.499749 37,975 215 401 0
2019-11-30 17:39:12 GMT 50.817123 6.503015 37,950 215 401 128
2019-11-30 17:39:09 GMT 50.827084 6.513748 37,950 215 401 0
2019-11-30 17:39:03 GMT 50.837093 6.524658 37,950 215 400 0
2019-11-30 17:39:00 GMT 50.837093 6.524658 37,950 215 400 0
2019-11-30 17:38:57 GMT 50.840973 6.528848 37,950 215 400 0
2019-11-30 17:38:54 GMT 50.846264 6.534653 37,950 215 400 0
2019-11-30 17:38:51 GMT 50.850082 6.538721 37,950 215 400 -64
2019-11-30 17:38:48 GMT 50.854385 6.543472 37,950 215 401 0
2019-11-30 17:38:45 GMT 50.860275 6.549911 37,950 215 401 -64
2019-11-30 17:38:42 GMT 50.869400 6.559830 37,975 215 399 0
2019-11-30 17:38:39 GMT 50.869400 6.559830 37,975 215 400 0
2019-11-30 17:38:36 GMT 50.873680 6.564560 37,975 215 400 0
2019-11-30 17:38:33 GMT 50.878738 6.569973 37,975 215 399 0
2019-11-30 17:38:30 GMT 50.882401 6.573981 37,975 215 399 0
2019-11-30 17:38:27 GMT 50.887741 6.579742 37,975 215 399 0
2019-11-30 17:38:24 GMT 50.891830 6.584151 37,975 215 398 0
2019-11-30 17:38:21 GMT 50.895721 6.588456 37,975 215 399 0
2019-11-30 17:38:18 GMT 50.901661 6.594925 38,000 215 399 0
2019-11-30 17:38:15 GMT 50.904831 6.598404 37,975 215 398 0
2019-11-30 17:38:12 GMT 50.908875 6.602859 37,975 215 399 -64
2019-11-30 17:38:09 GMT 50.915253 6.609802 37,975 215 399 0
2019-11-30 17:38:06 GMT 50.919937 6.614957 38,000 215 399 0
2019-11-30 17:38:03 GMT 50.922958 6.618298 38,000 215 400 -64
2019-11-30 17:38:00 GMT 50.927357 6.623154 38,000 215 399 0
2019-11-30 17:37:57 GMT 50.932343 6.628616 38,000 215 399 0
2019-11-30 17:37:54 GMT 50.942688 6.639899 38,000 215 399 0
2019-11-30 17:37:48 GMT 50.951656 6.649628 38,000 215 399 0
2019-11-30 17:37:45 GMT 50.951656 6.649628 38,000 215 399 0
2019-11-30 17:37:42 GMT 50.955505 6.653855 38,000 215 399 0
2019-11-30 17:37:36 GMT 50.965530 6.664767 38,000 215 399 0
2019-11-30 17:37:33 GMT 50.969299 6.668930 38,000 215 399 0
2019-11-30 17:37:30 GMT 50.974594 6.674714 38,000 215 400 0
2019-11-30 17:37:27 GMT 50.977448 6.677856 38,000 215 400 0
2019-11-30 17:37:24 GMT 50.982422 6.683251 38,000 215 400 -64
2019-11-30 17:37:21 GMT 50.986572 6.687851 38,000 215 400 -64
2019-11-30 17:37:18 GMT 50.992344 6.694183 38,000 215 400 -64
2019-11-30 17:37:15 GMT 51.001514 6.704254 38,025 215 399 0
2019-11-30 17:37:12 GMT 51.006031 6.709137 38,025 215 399 0
2019-11-30 17:37:09 GMT 51.006031 6.709137 38,000 215 399 0
2019-11-30 17:37:03 GMT 51.013824 6.717694 38,000 215 399 64
2019-11-30 17:37:00 GMT 51.019997 6.724472 38,000 215 399 0
2019-11-30 17:36:57 GMT 51.023067 6.727829 38,000 215 400 64
2019-11-30 17:36:51 GMT 51.032799 6.738510 38,000 215 400 64
2019-11-30 17:36:48 GMT 51.038681 6.745012 38,000 215 400 64
2019-11-30 17:36:45 GMT 51.041656 6.748352 38,000 215 400 0
2019-11-30 17:36:42 GMT 51.047649 6.754913 38,000 215 400 64
2019-11-30 17:36:39 GMT 51.050491 6.758002 38,000 215 401 64
2019-11-30 17:36:36 GMT 51.055389 6.763347 37,975 215 401 64
2019-11-30 17:36:33 GMT 51.060516 6.768989 37,975 215 401 0
2019-11-30 17:36:30 GMT 51.064499 6.773442 37,975 215 401 64
2019-11-30 17:36:27 GMT 51.069077 6.778416 37,950 215 401 64
2019-11-30 17:36:24 GMT 51.073158 6.782913 37,975 215 401 64
2019-11-30 17:36:21 GMT 51.078506 6.788808 37,975 215 400 64
2019-11-30 17:36:18 GMT 51.081398 6.791992 37,950 215 400 64
2019-11-30 17:36:15 GMT 51.087708 6.798904 37,950 215 400 0
2019-11-30 17:36:12 GMT 51.092384 6.804123 37,950 215 400 0
2019-11-30 17:36:09 GMT 51.096622 6.808853 37,975 215 400 0
2019-11-30 17:36:06 GMT 51.101944 6.814641 37,975 215 400 0
2019-11-30 17:36:02 GMT 51.107189 6.820526 37,975 215 401 0
2019-11-30 17:35:59 GMT 51.111969 6.825776 37,975 215 400 0
2019-11-30 17:35:55 GMT 51.118973 6.833496 37,975 215 400 0
2019-11-30 17:35:52 GMT 51.121758 6.836624 37,975 216 400 64
2019-11-30 17:35:49 GMT 51.127529 6.843033 37,950 216 400 64
2019-11-30 17:35:46 GMT 51.132374 6.848526 37,950 216 400 64
2019-11-30 17:35:43 GMT 51.136051 6.852570 37,950 216 400 64
2019-11-30 17:35:40 GMT 51.141312 6.858438 37,950 215 401 0
2019-11-30 17:35:36 GMT 51.146439 6.864154 37,950 215 400 0
2019-11-30 17:35:33 GMT 51.151134 6.869354 37,950 215 400 0
2019-11-30 17:35:30 GMT 51.156628 6.875381 37,950 215 401 -64
2019-11-30 17:35:27 GMT 51.159698 6.878738 37,950 215 401 0
2019-11-30 17:35:24 GMT 51.166214 6.885978 37,950 215 400 -64
2019-11-30 17:35:21 GMT 51.170197 6.890358 37,950 215 400 0
2019-11-30 17:35:18 GMT 51.173664 6.894226 37,950 215 400 -64
2019-11-30 17:35:15 GMT 51.179203 6.900330 37,975 215 400 0
2019-11-30 17:35:12 GMT 51.183441 6.904907 37,975 215 401 -64
2019-11-30 17:35:09 GMT 51.191868 6.914215 37,975 215 401 0
2019-11-30 17:35:06 GMT 51.191868 6.914215 37,975 215 400 -64
2019-11-30 17:35:03 GMT 51.201595 6.924973 37,975 215 401 0
2019-11-30 17:35:00 GMT 51.201595 6.924973 37,975 215 401 0
2019-11-30 17:34:57 GMT 51.207047 6.930963 37,975 215 401 64
2019-11-30 17:34:54 GMT 51.210861 6.935120 37,975 215 401 0
2019-11-30 17:34:51 GMT 51.214920 6.939574 37,975 215 401 0
2019-11-30 17:34:48 GMT 51.219288 6.944427 37,975 215 401 0
2019-11-30 17:34:45 GMT 51.229156 6.955311 38,000 215 401 0
2019-11-30 17:34:42 GMT 51.233185 6.959690 37,975 215 401 0
2019-11-30 17:34:39 GMT 51.238953 6.966074 37,975 215 400 0
2019-11-30 17:34:36 GMT 51.238953 6.966074 37,975 215 400 0
2019-11-30 17:34:33 GMT 51.241974 6.969489 37,975 215 401 0
2019-11-30 17:34:30 GMT 51.246426 6.974411 37,975 215 401 0
2019-11-30 17:34:27 GMT 51.251678 6.980327 37,975 216 400 0
2019-11-30 17:34:24 GMT 51.255341 6.984335 37,975 216 401 0
2019-11-30 17:34:21 GMT 51.261383 6.991165 37,975 216 401 0
2019-11-30 17:34:18 GMT 51.265640 6.995916 38,000 216 401 0
2019-11-30 17:34:15 GMT 51.268707 6.999404 38,000 216 401 0
2019-11-30 17:34:12 GMT 51.273380 7.004547 38,000 216 401 0
2019-11-30 17:34:09 GMT 51.279991 7.012024 38,000 216 401 0
2019-11-30 17:34:06 GMT 51.283905 7.016329 38,000 216 401 0
2019-11-30 17:34:03 GMT 51.287624 7.020569 38,000 216 401 0
2019-11-30 17:34:00 GMT 51.293015 7.026573 38,000 215 402 0
2019-11-30 17:33:57 GMT 51.296585 7.030582 38,000 216 401 0
2019-11-30 17:33:54 GMT 51.302948 7.037708 38,000 216 401 0
2019-11-30 17:33:51 GMT 51.306431 7.041626 38,000 215 402 0
2019-11-30 17:33:48 GMT 51.311924 7.047729 38,000 215 402 0
2019-11-30 17:33:45 GMT 51.314716 7.050781 38,000 215 402 0
2019-11-30 17:33:42 GMT 51.319000 7.055588 38,000 216 403 0
2019-11-30 17:33:39 GMT 51.324921 7.062205 38,025 216 403 0
2019-11-30 17:33:36 GMT 51.330414 7.068366 38,025 216 403 0
2019-11-30 17:33:33 GMT 51.333527 7.071838 38,025 216 403 0
2019-11-30 17:33:30 GMT 51.338333 7.077274 38,025 216 403 0
2019-11-30 17:33:27 GMT 51.343952 7.083511 38,025 216 403 0
2019-11-30 17:33:24 GMT 51.347717 7.087741 38,025 216 403 0
2019-11-30 17:33:21 GMT 51.352249 7.092714 38,025 216 403 0
2019-11-30 17:33:18 GMT 51.355824 7.096863 38,025 216 404 0
2019-11-30 17:33:15 GMT 51.360855 7.102513 38,025 216 404 0
2019-11-30 17:33:12 GMT 51.365753 7.107932 38,025 216 404 0
2019-11-30 17:33:09 GMT 51.369965 7.112757 38,025 216 404 0
2019-11-30 17:33:06 GMT 51.374588 7.117879 38,025 216 404 0
2019-11-30 17:33:03 GMT 51.379761 7.123669 38,000 216 404 0
2019-11-30 17:33:00 GMT 51.384220 7.128677 38,025 216 404 64
2019-11-30 17:32:57 GMT 51.392784 7.138290 38,025 215 405 64
2019-11-30 17:32:54 GMT 51.397999 7.144089 38,025 215 405 64
2019-11-30 17:32:51 GMT 51.397999 7.144089 38,025 215 404 64
2019-11-30 17:32:48 GMT 51.402695 7.149353 38,000 216 405 0
2019-11-30 17:32:45 GMT 51.408100 7.155380 38,000 216 405 0
2019-11-30 17:32:42 GMT 51.412537 7.160339 38,000 216 405 0
2019-11-30 17:32:39 GMT 51.416946 7.165298 38,000 216 405 0
2019-11-30 17:32:36 GMT 51.420998 7.169800 38,000 216 405 0
2019-11-30 17:32:33 GMT 51.424850 7.174072 38,000 216 405 64
2019-11-30 17:32:30 GMT 51.430447 7.180405 38,000 216 405 64
2019-11-30 17:32:27 GMT 51.435883 7.186469 38,000 216 405 0
2019-11-30 17:32:24 GMT 51.439384 7.190399 38,000 216 405 0
2019-11-30 17:32:21 GMT 51.444599 7.196274 38,000 216 405 0
2019-11-30 17:32:18 GMT 51.447624 7.199707 38,000 216 405 0
2019-11-30 17:32:15 GMT 51.458656 7.212067 38,000 216 405 0
2019-11-30 17:32:12 GMT 51.461452 7.215195 38,000 216 405 0
2019-11-30 17:32:06 GMT 51.466187 7.220541 38,000 216 405 0
2019-11-30 17:32:03 GMT 51.470669 7.225571 38,000 216 405 0
2019-11-30 17:32:00 GMT 51.480770 7.236862 38,000 216 405 0
2019-11-30 17:31:57 GMT 51.480770 7.236862 38,000 216 405 0
2019-11-30 17:31:54 GMT 51.485229 7.241920 38,000 216 405 0
2019-11-30 17:31:51 GMT 51.491043 7.248453 38,000 216 405 0
2019-11-30 17:31:48 GMT 51.495300 7.253278 38,000 216 405 0
2019-11-30 17:31:45 GMT 51.499485 7.257996 38,000 216 405 64
2019-11-30 17:31:42 GMT 51.503906 7.263002 38,000 216 405 64
2019-11-30 17:31:39 GMT 51.512741 7.272949 38,000 216 406 0
2019-11-30 17:31:36 GMT 51.512741 7.272949 38,000 216 405 0
2019-11-30 17:31:33 GMT 51.522060 7.283478 38,000 216 405 0
2019-11-30 17:31:30 GMT 51.522060 7.283478 38,000 216 405 0
2019-11-30 17:31:27 GMT 51.527275 7.289352 38,000 216 405 0
2019-11-30 17:31:24 GMT 51.530182 7.292621 38,000 216 405 64
2019-11-30 17:31:21 GMT 51.535561 7.298660 38,000 216 404 0
2019-11-30 17:31:17 GMT 51.541939 7.305832 37,975 216 405 64
2019-11-30 17:31:14 GMT 51.546547 7.311096 37,975 216 405 0
2019-11-30 17:31:11 GMT 51.550369 7.315410 37,975 216 405 64
2019-11-30 17:31:08 GMT 51.554787 7.320480 37,975 216 405 128
2019-11-30 17:31:05 GMT 51.559250 7.325505 37,975 216 405 0
2019-11-30 17:31:02 GMT 51.563400 7.330170 37,975 216 404 0
2019-11-30 17:30:59 GMT 51.569916 7.337605 37,975 216 404 0
2019-11-30 17:30:56 GMT 51.578949 7.347794 37,975 216 404 0
2019-11-30 17:30:53 GMT 51.582825 7.352155 37,975 216 404 0
2019-11-30 17:30:50 GMT 51.582825 7.352155 37,975 216 404 0
2019-11-30 17:30:47 GMT 51.587677 7.357648 37,975 216 404 0
2019-11-30 17:30:44 GMT 51.593334 7.364044 37,975 216 404 0
2019-11-30 17:30:41 GMT 51.596970 7.368337 37,975 216 403 0
2019-11-30 17:30:38 GMT 51.602177 7.374115 37,975 216 404 0
2019-11-30 17:30:35 GMT 51.606739 7.379227 37,975 216 403 0
2019-11-30 17:30:32 GMT 51.609718 7.382660 37,975 216 404 0
2019-11-30 17:30:29 GMT 51.615585 7.389221 37,975 216 403 0
2019-11-30 17:30:26 GMT 51.623501 7.398224 38,000 216 404 0
2019-11-30 17:30:23 GMT 51.623501 7.398224 37,975 216 403 0
2019-11-30 17:30:20 GMT 51.630707 7.406344 37,975 216 404 0
2019-11-30 17:30:17 GMT 51.638580 7.415252 37,975 216 404 0
2019-11-30 17:30:14 GMT 51.638580 7.415252 37,975 216 404 0
2019-11-30 17:30:11 GMT 51.643478 7.420819 38,000 216 403 0
2019-11-30 17:30:08 GMT 51.647568 7.425461 38,000 216 403 0
2019-11-30 17:30:05 GMT 51.651443 7.429801 38,000 216 403 0
2019-11-30 17:30:02 GMT 51.656021 7.435072 38,000 216 403 0
2019-11-30 17:29:59 GMT 51.661194 7.440936 38,000 216 403 0
2019-11-30 17:29:56 GMT 51.665771 7.446058 38,000 216 403 0
2019-11-30 17:29:53 GMT 51.670349 7.451254 38,000 216 403 0
2019-11-30 17:29:50 GMT 51.675358 7.456970 38,000 216 403 0
2019-11-30 17:29:47 GMT 51.678818 7.460905 38,000 216 403 -64
2019-11-30 17:29:44 GMT 51.682621 7.465210 38,000 216 403 0
2019-11-30 17:29:41 GMT 51.687183 7.470398 38,000 216 403 -64
2019-11-30 17:29:38 GMT 51.696308 7.480774 38,000 216 403 0
2019-11-30 17:29:35 GMT 51.701019 7.486143 38,000 216 403 0
2019-11-30 17:29:32 GMT 51.705433 7.491150 38,000 216 403 0
2019-11-30 17:29:29 GMT 51.710598 7.497025 38,000 216 403 0
2019-11-30 17:29:26 GMT 51.710598 7.497025 38,000 216 403 0
2019-11-30 17:29:23 GMT 51.715942 7.503142 38,000 216 403 0
2019-11-30 17:29:20 GMT 51.720978 7.508850 38,000 216 403 0
2019-11-30 17:29:17 GMT 51.726013 7.514574 38,000 216 403 0
2019-11-30 17:29:14 GMT 51.729778 7.518921 38,000 216 403 0
2019-11-30 17:29:11 GMT 51.738670 7.528992 38,000 216 404 0
2019-11-30 17:29:08 GMT 51.743088 7.534023 38,025 216 404 0
2019-11-30 17:29:05 GMT 51.743088 7.534023 38,000 216 403 0
2019-11-30 17:29:02 GMT 51.748260 7.539962 38,000 216 403 0
2019-11-30 17:28:58 GMT 51.753891 7.546387 38,000 216 403 0
2019-11-30 17:28:55 GMT 51.757523 7.550583 38,000 216 404 0
2019-11-30 17:28:52 GMT 51.762222 7.555996 38,025 216 403 0
2019-11-30 17:28:49 GMT 51.771286 7.566388 38,025 216 403 0
2019-11-30 17:28:46 GMT 51.775352 7.571030 38,025 216 403 0
2019-11-30 17:28:40 GMT 51.780121 7.576484 38,000 216 403 0
2019-11-30 17:28:37 GMT 51.786255 7.583461 38,000 216 403 0
2019-11-30 17:28:34 GMT 51.790421 7.588287 38,000 216 403 0
2019-11-30 17:28:31 GMT 51.795135 7.593689 38,000 216 403 0
2019-11-30 17:28:28 GMT 51.798660 7.597714 38,000 216 403 0
2019-11-30 17:28:25 GMT 51.803513 7.603281 38,000 216 403 0
2019-11-30 17:28:22 GMT 51.808590 7.609100 38,000 216 403 0
2019-11-30 17:28:19 GMT 51.812222 7.613220 38,000 216 403 64
2019-11-30 17:28:16 GMT 51.816650 7.618276 38,000 216 403 64
2019-11-30 17:28:13 GMT 51.827679 7.630920 38,000 216 404 64
2019-11-30 17:28:10 GMT 51.831253 7.634978 38,000 216 404 0
2019-11-30 17:28:07 GMT 51.831253 7.634978 38,000 216 404 0
2019-11-30 17:28:04 GMT 51.836655 7.641214 38,000 216 404 0
2019-11-30 17:28:01 GMT 51.840363 7.645445 38,000 216 403 64
2019-11-30 17:27:58 GMT 51.845039 7.650833 38,000 216 403 0
2019-11-30 17:27:55 GMT 51.849602 7.656097 38,000 216 403 0
2019-11-30 17:27:52 GMT 51.853516 7.660599 38,000 216 403 64
2019-11-30 17:27:49 GMT 51.859612 7.667618 38,000 216 403 64
2019-11-30 17:27:46 GMT 51.863068 7.671575 38,000 216 403 64
2019-11-30 17:27:43 GMT 51.866875 7.676010 37,975 216 403 64
2019-11-30 17:27:40 GMT 51.876278 7.686768 37,975 216 403 0
2019-11-30 17:27:34 GMT 51.882050 7.693405 37,975 216 403 0
2019-11-30 17:27:31 GMT 51.885544 7.697407 37,975 216 403 0
2019-11-30 17:27:28 GMT 51.889404 7.701874 37,975 216 403 0
2019-11-30 17:27:25 GMT 51.895569 7.708969 37,975 216 403 0
2019-11-30 17:27:22 GMT 51.898041 7.711868 37,975 216 402 0
2019-11-30 17:27:18 GMT 51.909485 7.725067 37,975 216 403 0
2019-11-30 17:27:15 GMT 51.913380 7.729510 37,975 216 402 0
2019-11-30 17:27:09 GMT 51.920609 7.737885 37,975 216 402 0
2019-11-30 17:27:06 GMT 51.924179 7.742065 37,975 216 403 0
2019-11-30 17:27:03 GMT 51.928619 7.747192 37,975 216 402 0
2019-11-30 17:27:00 GMT 51.933304 7.752581 37,975 216 402 0
2019-11-30 17:26:57 GMT 51.938324 7.758408 37,975 216 402 0
2019-11-30 17:26:54 GMT 51.942101 7.762783 37,975 216 402 0
2019-11-30 17:26:51 GMT 51.946667 7.767962 37,975 216 402 0
2019-11-30 17:26:48 GMT 51.950363 7.772293 37,975 216 402 0
2019-11-30 17:26:45 GMT 51.955856 7.778625 37,975 216 402 0
2019-11-30 17:26:42 GMT 51.959606 7.782950 37,975 216 402 0
2019-11-30 17:26:39 GMT 51.963089 7.786942 37,975 216 402 64
2019-11-30 17:26:36 GMT 51.968216 7.792892 37,975 216 402 0
2019-11-30 17:26:33 GMT 51.974579 7.800217 37,975 216 402 0
2019-11-30 17:26:30 GMT 51.977436 7.803589 37,975 216 402 64
2019-11-30 17:26:27 GMT 51.988377 7.816145 37,950 216 402 0
2019-11-30 17:26:24 GMT 51.992004 7.820304 37,950 216 403 0
2019-11-30 17:26:21 GMT 51.992004 7.820304 37,950 216 402 0
2019-11-30 17:26:18 GMT 51.995686 7.824541 37,950 216 402 0
2019-11-30 17:26:15 GMT 52.001690 7.831447 37,950 216 402 0
2019-11-30 17:26:12 GMT 52.004654 7.834778 37,950 216 401 0
2019-11-30 17:26:09 GMT 52.010971 7.842102 37,975 216 401 0
2019-11-30 17:26:06 GMT 52.014725 7.846514 37,950 216 402 0
2019-11-30 17:26:03 GMT 52.020172 7.852870 37,950 216 402 0
2019-11-30 17:26:00 GMT 52.023285 7.856522 37,950 216 401 0
2019-11-30 17:25:57 GMT 52.028549 7.862680 37,950 216 402 -64
2019-11-30 17:25:54 GMT 52.032578 7.867355 37,950 216 402 -64
2019-11-30 17:25:51 GMT 52.036369 7.871783 37,950 216 402 -64
2019-11-30 17:25:48 GMT 52.041817 7.878060 37,975 216 402 0
2019-11-30 17:25:45 GMT 52.046333 7.883318 37,975 216 401 0
2019-11-30 17:25:42 GMT 52.051620 7.889481 37,975 216 401 0
2019-11-30 17:25:39 GMT 52.055191 7.893677 37,975 216 401 0
2019-11-30 17:25:36 GMT 52.058994 7.898150 37,975 216 401 0
2019-11-30 17:25:33 GMT 52.064999 7.905134 37,975 216 401 0
2019-11-30 17:25:30 GMT 52.068027 7.908665 37,975 216 402 0
2019-11-30 17:25:27 GMT 52.074188 7.915802 37,975 216 402 0
2019-11-30 17:25:24 GMT 52.076935 7.919006 37,975 216 402 0
2019-11-30 17:25:21 GMT 52.082504 7.925459 37,975 216 402 0
2019-11-30 17:25:18 GMT 52.087345 7.931109 37,975 216 402 0
2019-11-30 17:25:15 GMT 52.091255 7.935582 37,975 216 402 0
2019-11-30 17:25:12 GMT 52.097168 7.942505 37,975 216 402 0
2019-11-30 17:25:09 GMT 52.100143 7.945938 37,975 216 402 0
2019-11-30 17:25:06 GMT 52.104523 7.951041 37,975 216 402 0
2019-11-30 17:25:03 GMT 52.110577 7.958025 37,975 216 402 0
2019-11-30 17:25:00 GMT 52.113602 7.961557 37,975 216 402 0
2019-11-30 17:24:57 GMT 52.117676 7.966309 37,975 216 402 0
2019-11-30 17:24:54 GMT 52.122353 7.971758 38,000 216 402 0
2019-11-30 17:24:51 GMT 52.132874 7.984079 38,000 216 401 0
2019-11-30 17:24:48 GMT 52.132874 7.984079 38,000 216 401 0
2019-11-30 17:24:45 GMT 52.136948 7.988815 38,000 216 402 0
2019-11-30 17:24:42 GMT 52.145462 7.998810 38,000 216 402 0
2019-11-30 17:24:39 GMT 52.145462 7.998810 37,975 216 404 0
2019-11-30 17:24:36 GMT 52.150703 8.004953 38,000 216 403 0
2019-11-30 17:24:33 GMT 52.155396 8.010406 37,975 216 402 0
2019-11-30 17:24:30 GMT 52.158691 8.014221 38,000 216 402 0
2019-11-30 17:24:27 GMT 52.162434 8.018607 38,000 216 403 64
2019-11-30 17:24:24 GMT 52.167435 8.024445 37,975 216 403 64
2019-11-30 17:24:21 GMT 52.173328 8.031320 37,975 216 404 0
2019-11-30 17:24:18 GMT 52.176224 8.034668 37,975 216 404 0
2019-11-30 17:24:15 GMT 52.181671 8.041077 37,975 216 404 0
2019-11-30 17:24:12 GMT 52.186920 8.047250 38,000 216 404 0
2019-11-30 17:24:09 GMT 52.189945 8.050781 38,000 216 404 0
2019-11-30 17:24:06 GMT 52.199398 8.061846 38,000 216 404 0
2019-11-30 17:24:03 GMT 52.199398 8.061846 38,000 216 404 0
2019-11-30 17:24:00 GMT 52.205246 8.068695 38,000 216 404 0
2019-11-30 17:23:57 GMT 52.209503 8.073654 37,975 216 404 0
2019-11-30 17:23:54 GMT 52.213165 8.078003 38,000 216 404 0
2019-11-30 17:23:51 GMT 52.217697 8.083344 37,975 216 404 0
2019-11-30 17:23:48 GMT 52.223465 8.090057 37,975 216 404 0
2019-11-30 17:23:45 GMT 52.227234 8.094491 38,000 216 404 0
2019-11-30 17:23:42 GMT 52.236511 8.105316 38,000 216 404 0
2019-11-30 17:23:39 GMT 52.236511 8.105316 37,975 216 405 0
2019-11-30 17:23:36 GMT 52.241959 8.111725 38,000 216 405 0
2019-11-30 17:23:33 GMT 52.245255 8.115540 38,000 216 404 0
2019-11-30 17:23:30 GMT 52.249672 8.120701 38,000 216 404 0
2019-11-30 17:23:27 GMT 52.258427 8.131060 37,975 216 405 0
2019-11-30 17:23:21 GMT 52.264198 8.137887 37,975 216 406 0
2019-11-30 17:23:18 GMT 52.267269 8.141497 37,975 216 406 0
2019-11-30 17:23:15 GMT 52.271942 8.147049 37,975 216 406 0
2019-11-30 17:23:12 GMT 52.276348 8.152248 38,000 216 406 0
2019-11-30 17:23:09 GMT 52.281097 8.157806 38,000 216 406 0
2019-11-30 17:23:06 GMT 52.285629 8.163147 38,000 216 406 0
2019-11-30 17:23:03 GMT 52.291523 8.170140 38,000 216 406 0
2019-11-30 17:23:00 GMT 52.296364 8.175868 38,000 216 406 0
2019-11-30 17:22:57 GMT 52.299717 8.179792 38,000 216 403 0
2019-11-30 17:22:54 GMT 52.305908 8.187103 38,000 216 405 0
2019-11-30 17:22:51 GMT 52.313309 8.195801 38,000 216 406 0
2019-11-30 17:22:45 GMT 52.318802 8.202314 37,975 216 406 0
2019-11-30 17:22:41 GMT 52.322716 8.206944 37,975 216 406 0
2019-11-30 17:22:38 GMT 52.328205 8.213379 37,975 216 406 0
2019-11-30 17:22:35 GMT 52.334679 8.220991 37,975 216 406 0
2019-11-30 17:22:32 GMT 52.341290 8.228760 37,975 216 406 0
2019-11-30 17:22:26 GMT 52.346176 8.234567 38,000 216 405 -64
2019-11-30 17:22:23 GMT 52.351341 8.240609 38,000 216 405 0
2019-11-30 17:22:20 GMT 52.356464 8.246730 38,000 216 405 0
2019-11-30 17:22:17 GMT 52.362888 8.254264 37,975 216 404 0
2019-11-30 17:22:14 GMT 52.366608 8.258667 38,000 217 404 64
2019-11-30 17:22:11 GMT 52.370384 8.263210 38,000 217 404 64
2019-11-30 17:22:08 GMT 52.378418 8.272705 37,975 216 403 0
2019-11-30 17:22:02 GMT 52.388538 8.284712 37,975 216 403 -64
2019-11-30 17:21:59 GMT 52.388538 8.284712 38,000 216 403 -64
2019-11-30 17:21:56 GMT 52.396179 8.293762 38,000 216 403 0
2019-11-30 17:21:53 GMT 52.396179 8.293762 38,000 216 403 -64
2019-11-30 17:21:50 GMT 52.401199 8.299700 38,000 216 403 0
2019-11-30 17:21:47 GMT 52.405716 8.305036 38,000 216 403 0
2019-11-30 17:21:44 GMT 52.410835 8.311079 38,000 216 403 0
2019-11-30 17:21:41 GMT 52.413986 8.314896 38,000 216 403 0
2019-11-30 17:21:38 GMT 52.424335 8.327166 38,000 217 403 64
2019-11-30 17:21:35 GMT 52.424335 8.327166 38,000 216 402 0
2019-11-30 17:21:32 GMT 52.429642 8.333435 38,000 216 403 0
2019-11-30 17:21:29 GMT 52.433578 8.338089 38,000 216 403 0
2019-11-30 17:21:26 GMT 52.437325 8.342547 38,000 216 403 0
2019-11-30 17:21:23 GMT 52.442322 8.348389 38,000 216 403 0
2019-11-30 17:21:19 GMT 52.452408 8.360439 38,000 217 403 0
2019-11-30 17:21:16 GMT 52.452408 8.360439 38,000 217 403 0
2019-11-30 17:21:13 GMT 52.457249 8.366167 38,000 216 402 64
2019-11-30 17:21:10 GMT 52.462189 8.372040 37,975 216 402 128
2019-11-30 17:21:07 GMT 52.467316 8.378067 37,975 217 400 0
2019-11-30 17:21:04 GMT 52.470337 8.381729 37,975 216 401 64
2019-11-30 17:21:01 GMT 52.480225 8.393402 37,950 216 401 0
2019-11-30 17:20:58 GMT 52.485458 8.399676 37,950 216 401 0
2019-11-30 17:20:55 GMT 52.485458 8.399676 37,600 216 400 1152
2019-11-30 17:20:52 GMT 52.489697 8.404698 37,950 216 400 192
2019-11-30 17:20:49 GMT 52.497425 8.413879 37,950 217 399 320
2019-11-30 17:20:46 GMT 52.502655 8.420105 36,850 216 398 1152
2019-11-30 17:20:43 GMT 52.502655 8.420105 37,925 217 398 704
2019-11-30 17:20:40 GMT 52.512451 8.431854 37,850 217 397 1024
2019-11-30 17:20:37 GMT 52.512451 8.431854 37,775 217 397 1088
2019-11-30 17:20:34 GMT 52.515060 8.434982 37,775 217 397 1088
2019-11-30 17:20:31 GMT 52.520096 8.441010 37,725 217 397 1152
2019-11-30 17:20:27 GMT 52.524857 8.446655 37,650 217 408 640
2019-11-30 17:20:24 GMT 52.529453 8.452096 37,625 217 398 1216
2019-11-30 17:20:21 GMT 52.535614 8.459473 37,475 216 400 1152
2019-11-30 17:20:18 GMT 52.539139 8.463669 37,450 216 401 1152
2019-11-30 17:20:15 GMT 52.543186 8.468497 37,375 217 403 1152
2019-11-30 17:20:12 GMT 52.549026 8.475418 37,300 217 405 1152
2019-11-30 17:20:09 GMT 52.551937 8.478856 37,275 217 408 1088
2019-11-30 17:20:06 GMT 52.561523 8.490372 37,150 217 410 1280
2019-11-30 17:20:00 GMT 52.567764 8.497846 37,050 217 411 1536
2019-11-30 17:19:57 GMT 52.571594 8.502426 36,975 217 412 1152
2019-11-30 17:19:54 GMT 52.575943 8.507614 36,950 217 412 1024
2019-11-30 17:19:51 GMT 52.579777 8.512286 36,875 217 411 896
2019-11-30 17:19:48 GMT 52.585190 8.518677 36,850 217 411 832
2019-11-30 17:19:45 GMT 52.589767 8.524246 36,725 217 410 704
2019-11-30 17:19:41 GMT 52.595139 8.530648 36,700 217 410 576
2019-11-30 17:19:38 GMT 52.600159 8.536682 36,600 217 407 768
2019-11-30 17:19:35 GMT 52.603455 8.540649 36,700 217 408 640
2019-11-30 17:19:32 GMT 52.608673 8.546906 36,650 217 408 640
2019-11-30 17:19:29 GMT 52.618553 8.558742 36,500 217 407 1280
2019-11-30 17:19:26 GMT 52.623550 8.564682 36,400 217 406 1408
2019-11-30 17:19:23 GMT 52.628281 8.570356 36,400 217 407 1600
2019-11-30 17:19:20 GMT 52.628281 8.570356 36,375 217 407 1664
2019-11-30 17:19:14 GMT 52.636826 8.580627 36,200 217 409 1920
2019-11-30 17:19:11 GMT 52.642155 8.587071 35,900 217 410 1664
2019-11-30 17:19:08 GMT 52.646717 8.592564 35,975 217 410 1792
2019-11-30 17:19:05 GMT 52.649509 8.595860 35,950 217 410 1728
2019-11-30 17:19:02 GMT 52.655136 8.602676 35,375 217 410 1408
2019-11-30 17:18:59 GMT 52.659008 8.607317 35,775 217 410 1280
2019-11-30 17:18:56 GMT 52.664455 8.613909 35,675 217 410 896
2019-11-30 17:18:53 GMT 52.669064 8.619481 35,650 217 410 896
2019-11-30 17:18:50 GMT 52.672302 8.623352 35,600 217 410 896
2019-11-30 17:18:47 GMT 52.678280 8.630545 35,550 217 410 896
2019-11-30 17:18:44 GMT 52.683014 8.636246 35,475 217 410 896
2019-11-30 17:18:41 GMT 52.687592 8.641815 35,400 217 410 832
2019-11-30 17:18:38 GMT 52.695923 8.651890 34,950 217 409 2112
2019-11-30 17:18:32 GMT 52.701462 8.658561 35,300 217 408 1088
2019-11-30 17:18:29 GMT 52.705215 8.663025 35,225 217 408 1344
2019-11-30 17:18:26 GMT 52.709793 8.668594 34,950 217 409 2112
2019-11-30 17:18:23 GMT 52.713940 8.673471 35,100 217 407 1728
2019-11-30 17:18:20 GMT 52.720318 8.681161 34,975 217 408 2112
2019-11-30 17:18:17 GMT 52.723667 8.685242 34,925 217 409 2112
2019-11-30 17:18:13 GMT 52.729115 8.691833 34,675 217 410 2112
2019-11-30 17:18:07 GMT 52.743221 8.708862 34,475 217 412 2176
2019-11-30 17:18:04 GMT 52.743221 8.708862 34,375 217 414 2112
2019-11-30 17:18:01 GMT 52.747177 8.713649 34,325 217 412 2240
2019-11-30 17:17:58 GMT 52.751831 8.719299 33,850 217 415 1344
2019-11-30 17:17:55 GMT 52.757977 8.726676 34,100 217 415 2048
2019-11-30 17:17:52 GMT 52.762756 8.732529 34,000 217 415 1920
2019-11-30 17:17:49 GMT 52.766785 8.737335 33,900 217 416 1600
2019-11-30 17:17:46 GMT 52.771179 8.742676 33,800 217 415 1344
2019-11-30 17:17:43 GMT 52.775208 8.747559 33,750 217 415 1344
2019-11-30 17:17:40 GMT 52.782089 8.755868 33,625 217 415 1280
2019-11-30 17:17:37 GMT 52.786469 8.761204 33,625 217 414 1280
2019-11-30 17:17:34 GMT 52.794296 8.770676 33,250 217 414 2048
2019-11-30 17:17:31 GMT 52.798279 8.775558 33,400 217 413 1600
2019-11-30 17:17:28 GMT 52.803223 8.781509 33,100 217 414 2048
2019-11-30 17:17:25 GMT 52.803223 8.781509 33,100 217 413 1920
2019-11-30 17:17:22 GMT 52.807800 8.787155 33,050 217 414 2048
2019-11-30 17:17:19 GMT 52.813980 8.794632 33,100 217 414 2048
2019-11-30 17:17:16 GMT 52.817192 8.798558 33,000 217 414 2048
2019-11-30 17:17:13 GMT 52.822731 8.805228 32,900 217 414 2112
2019-11-30 17:17:10 GMT 52.827385 8.810878 32,750 217 415 2176
2019-11-30 17:17:07 GMT 52.831238 8.815536 32,675 217 415 2176
2019-11-30 17:17:04 GMT 52.835861 8.821182 32,550 217 416 2176
2019-11-30 17:17:01 GMT 52.840981 8.827358 32,450 217 417 2176
2019-11-30 17:16:58 GMT 52.846287 8.833793 32,350 217 417 2112
2019-11-30 17:16:55 GMT 52.850056 8.838344 32,150 217 418 2048
2019-11-30 17:16:52 GMT 52.859528 8.849869 32,050 217 418 1920
2019-11-30 17:16:49 GMT 52.859528 8.849869 31,875 217 419 1856
2019-11-30 17:16:46 GMT 52.865280 8.856864 31,875 217 419 1856
2019-11-30 17:16:43 GMT 52.869331 8.861808 31,750 217 419 1920
2019-11-30 17:16:40 GMT 52.872402 8.865574 31,675 217 419 1920
2019-11-30 17:16:37 GMT 52.878845 8.873444 31,575 217 419 1856
2019-11-30 17:16:33 GMT 52.883469 8.879089 31,475 217 419 1856
2019-11-30 17:16:30 GMT 52.892807 8.890381 31,300 217 419 1920
2019-11-30 17:16:27 GMT 52.898285 8.897121 31,225 217 419 1920
2019-11-30 17:16:24 GMT 52.898285 8.897121 31,175 217 419 1856
2019-11-30 17:16:21 GMT 52.902336 8.902065 31,025 217 419 1600
2019-11-30 17:16:18 GMT 52.906906 8.907547 31,000 217 419 1600
2019-11-30 17:16:15 GMT 52.912018 8.913836 30,925 217 419 1536
2019-11-30 17:16:12 GMT 52.916519 8.919296 30,775 217 419 1408
2019-11-30 17:16:09 GMT 52.921375 8.925214 30,500 217 416 1408
2019-11-30 17:16:06 GMT 52.926178 8.931046 30,625 217 417 1408
2019-11-30 17:16:03 GMT 52.931618 8.937692 30,575 217 416 1408
2019-11-30 17:16:00 GMT 52.935745 8.942795 30,525 217 416 1408
2019-11-30 17:15:57 GMT 52.940556 8.948678 30,425 217 415 1408
2019-11-30 17:15:53 GMT 52.946548 8.955994 30,350 217 414 1408
2019-11-30 17:15:50 GMT 52.955750 8.967285 30,225 217 413 1536
2019-11-30 17:15:47 GMT 52.960052 8.972549 30,175 217 413 1536
2019-11-30 17:15:44 GMT 52.965740 8.979518 30,025 217 412 1600
2019-11-30 17:15:38 GMT 52.969418 8.984070 29,950 217 411 1600
2019-11-30 17:15:35 GMT 52.972443 8.987758 29,175 217 403 1856
2019-11-30 17:15:32 GMT 52.977859 8.994370 29,800 217 410 1472
2019-11-30 17:15:29 GMT 52.982544 9.000078 29,725 217 410 1408
2019-11-30 17:15:26 GMT 52.994694 9.014988 29,575 217 408 1280
2019-11-30 17:15:22 GMT 52.994694 9.014988 29,525 217 407 1216
2019-11-30 17:15:18 GMT 53.003494 9.025739 29,400 217 405 1408
2019-11-30 17:15:12 GMT 53.013409 9.037903 29,050 217 404 1984
2019-11-30 17:15:09 GMT 53.013409 9.037903 29,175 217 404 1920
2019-11-30 17:15:06 GMT 53.017181 9.042511 29,125 217 404 1984
2019-11-30 17:15:03 GMT 53.021942 9.048386 29,025 217 404 1920
2019-11-30 17:15:00 GMT 53.027069 9.054642 28,925 217 403 1856
2019-11-30 17:14:57 GMT 53.030773 9.059169 28,775 217 403 1856
2019-11-30 17:14:53 GMT 53.037460 9.067459 28,650 217 403 1792
2019-11-30 17:14:50 GMT 53.041718 9.072647 28,600 217 402 1728
2019-11-30 17:14:47 GMT 53.045715 9.077611 28,550 217 402 1728
2019-11-30 17:14:44 GMT 53.050964 9.084091 28,425 217 401 1792
2019-11-30 17:14:41 GMT 53.055260 9.089382 28,350 217 401 1792
2019-11-30 17:14:38 GMT 53.059731 9.094875 28,250 217 401 1792
2019-11-30 17:14:35 GMT 53.063221 9.099191 28,175 217 399 1792
2019-11-30 17:14:32 GMT 53.068619 9.105783 28,025 217 399 1728
2019-11-30 17:14:29 GMT 53.072891 9.111023 28,000 217 398 1728
2019-11-30 17:14:26 GMT 53.078842 9.118423 27,925 217 398 1728
2019-11-30 17:14:23 GMT 53.081608 9.121870 27,775 217 397 1856
2019-11-30 17:14:20 GMT 53.086166 9.127502 27,475 217 396 2048
2019-11-30 17:14:17 GMT 53.091476 9.133987 27,525 217 396 1984
2019-11-30 17:14:14 GMT 53.095154 9.138506 27,475 217 396 2048
2019-11-30 17:14:11 GMT 53.099396 9.143764 27,400 217 396 1984
2019-11-30 17:14:08 GMT 53.104385 9.149885 27,250 217 395 2112
2019-11-30 17:14:05 GMT 53.109100 9.155692 27,050 217 394 2240
2019-11-30 17:14:02 GMT 53.112946 9.160400 27,025 217 394 2304
2019-11-30 17:13:59 GMT 53.116615 9.164940 26,925 217 394 2304
2019-11-30 17:13:56 GMT 53.122154 9.171726 26,775 217 394 2304
2019-11-30 17:13:53 GMT 53.125694 9.176088 26,725 217 394 2304
2019-11-30 17:13:50 GMT 53.130203 9.181667 26,625 217 394 2304
2019-11-30 17:13:47 GMT 53.138775 9.192245 26,400 217 393 2368
2019-11-30 17:13:41 GMT 53.143757 9.198384 25,900 217 393 2368
2019-11-30 17:13:38 GMT 53.148926 9.204738 26,050 217 393 2368
2019-11-30 17:13:35 GMT 53.151764 9.208348 25,975 217 393 2368
2019-11-30 17:13:32 GMT 53.155163 9.212521 25,825 217 393 2432
2019-11-30 17:13:29 GMT 53.159958 9.218314 25,775 216 393 2432
2019-11-30 17:13:26 GMT 53.164612 9.223830 25,500 215 394 2432
2019-11-30 17:13:23 GMT 53.169479 9.229536 25,375 215 394 2368
2019-11-30 17:13:20 GMT 53.174286 9.234950 25,325 215 394 2112
2019-11-30 17:13:17 GMT 53.179138 9.240365 25,200 215 393 2048
2019-11-30 17:13:14 GMT 53.183395 9.245152 24,925 215 393 2048
2019-11-30 17:13:11 GMT 53.193008 9.255981 24,950 215 392 2112
2019-11-30 17:13:05 GMT 53.200596 9.264544 24,750 215 391 2176
2019-11-30 17:13:02 GMT 53.206600 9.271330 24,575 215 390 2240
2019-11-30 17:12:59 GMT 53.206600 9.271330 24,425 215 389 2048
2019-11-30 17:12:56 GMT 53.210140 9.275288 24,475 215 388 1984
2019-11-30 17:12:53 GMT 53.214886 9.280620 24,250 215 387 1728
2019-11-30 17:12:50 GMT 53.218750 9.284982 24,200 215 387 1728
2019-11-30 17:12:47 GMT 53.223778 9.290718 24,175 214 383 2560
2019-11-30 17:12:44 GMT 53.227478 9.294826 24,100 214 384 2112
2019-11-30 17:12:41 GMT 53.237324 9.305905 23,850 214 383 3456
2019-11-30 17:12:38 GMT 53.237324 9.305905 23,825 214 383 2560
2019-11-30 17:12:32 GMT 53.245285 9.314871 23,600 215 382 2944
2019-11-30 17:12:29 GMT 53.249706 9.319799 23,325 214 383 3392
2019-11-30 17:12:26 GMT 53.254807 9.325509 23,250 215 386 3584
2019-11-30 17:12:23 GMT 53.259392 9.330705 23,000 214 384 3520
2019-11-30 17:12:20 GMT 53.263092 9.334848 22,875 215 386 3520
2019-11-30 17:12:17 GMT 53.267956 9.340318 22,650 215 386 3584
2019-11-30 17:12:14 GMT 53.272984 9.345972 22,575 214 388 3392
2019-11-30 17:12:10 GMT 53.277603 9.351170 22,100 215 389 3200
2019-11-30 17:12:07 GMT 53.284103 9.358468 21,975 215 390 2752
2019-11-30 17:12:04 GMT 53.286346 9.360998 21,950 215 390 2624
2019-11-30 17:12:01 GMT 53.292526 9.367964 21,875 215 390 2624
2019-11-30 17:11:58 GMT 53.296371 9.372358 21,700 215 389 2432
2019-11-30 17:11:54 GMT 53.301891 9.378608 21,625 215 389 2368
2019-11-30 17:11:51 GMT 53.310783 9.388706 21,375 215 388 2048
2019-11-30 17:11:48 GMT 53.315094 9.393546 21,250 215 386 1984
2019-11-30 17:11:45 GMT 53.315094 9.393546 21,175 215 384 1984
2019-11-30 17:11:42 GMT 53.320839 9.400015 21,100 215 383 2048
2019-11-30 17:11:39 GMT 53.324478 9.404140 21,025 215 382 2112
2019-11-30 17:11:36 GMT 53.329742 9.410104 20,875 215 380 2496
2019-11-30 17:11:33 GMT 53.332710 9.413425 20,500 215 380 2560
2019-11-30 17:11:29 GMT 53.339630 9.421247 20,575 215 378 2496
2019-11-30 17:11:26 GMT 53.342907 9.424977 20,400 215 378 2496
2019-11-30 17:11:23 GMT 53.352585 9.436000 20,325 215 377 2368
2019-11-30 17:11:20 GMT 53.352585 9.436000 20,200 215 375 2240
2019-11-30 17:11:17 GMT 53.356129 9.440002 20,050 215 374 2048
2019-11-30 17:11:14 GMT 53.361015 9.445576 19,875 215 370 1600
2019-11-30 17:11:11 GMT 53.365295 9.450343 19,875 215 370 1600
2019-11-30 17:11:05 GMT 53.373047 9.459229 19,675 215 365 2112
2019-11-30 17:11:02 GMT 53.381149 9.468410 19,375 215 365 2240
2019-11-30 17:10:59 GMT 53.381149 9.468410 19,550 215 364 2432
2019-11-30 17:10:56 GMT 53.385086 9.472883 19,400 215 362 2944
2019-11-30 17:10:53 GMT 53.391174 9.479789 19,275 215 362 3264
2019-11-30 17:10:50 GMT 53.394241 9.483320 19,050 215 362 3456
2019-11-30 17:10:47 GMT 53.397858 9.487401 18,850 215 362 3456
2019-11-30 17:10:44 GMT 53.406868 9.497681 18,525 215 364 3136
2019-11-30 17:10:41 GMT 53.411179 9.502625 18,475 215 364 3072
2019-11-30 17:10:38 GMT 53.411179 9.502625 18,375 215 364 3072
2019-11-30 17:10:35 GMT 53.415344 9.507333 18,175 215 363 2944
2019-11-30 17:10:32 GMT 53.419624 9.512302 18,050 215 363 2752
2019-11-30 17:10:29 GMT 53.427071 9.520784 17,875 215 361 2496
2019-11-30 17:10:26 GMT 53.427071 9.520784 17,800 215 361 2496
2019-11-30 17:10:23 GMT 53.430817 9.524990 17,575 215 360 2624
2019-11-30 17:10:20 GMT 53.436710 9.531771 17,500 215 359 2688
2019-11-30 17:10:17 GMT 53.439880 9.535348 17,425 215 358 2816
2019-11-30 17:10:14 GMT 53.443317 9.539283 17,275 215 358 2624
2019-11-30 17:10:11 GMT 53.446903 9.543403 17,175 215 356 2560
2019-11-30 17:10:07 GMT 53.454346 9.551828 16,875 215 354 2688
2019-11-30 17:10:04 GMT 53.457191 9.555117 16,825 215 354 2688
2019-11-30 17:10:01 GMT 53.460846 9.559283 16,625 215 351 2880
2019-11-30 17:09:58 GMT 53.464779 9.563760 16,500 215 351 2880
2019-11-30 17:09:55 GMT 53.469574 9.569253 16,375 215 351 3008
2019-11-30 17:09:52 GMT 53.473579 9.573777 16,225 215 349 3072
2019-11-30 17:09:49 GMT 53.477348 9.578139 16,100 215 349 3136
2019-11-30 17:09:46 GMT 53.481354 9.582663 16,000 215 349 3136
2019-11-30 17:09:43 GMT 53.485245 9.587141 15,800 215 348 3008
2019-11-30 17:09:40 GMT 53.494156 9.597285 15,450 215 347 3072
2019-11-30 17:09:37 GMT 53.494156 9.597285 15,375 215 347 3136
2019-11-30 17:09:34 GMT 53.497601 9.601243 15,250 215 346 3200
2019-11-30 17:09:31 GMT 53.502068 9.606413 14,875 215 344 2944
2019-11-30 17:09:28 GMT 53.505466 9.610291 14,950 215 346 3200
2019-11-30 17:09:25 GMT 53.513615 9.619580 14,700 215 344 2944
2019-11-30 17:09:22 GMT 53.513615 9.619580 14,625 215 344 3008
2019-11-30 17:09:16 GMT 53.520969 9.627982 14,225 215 343 3200
2019-11-30 17:09:13 GMT 53.524246 9.631714 14,175 215 341 3456
2019-11-30 17:09:10 GMT 53.528324 9.636383 13,975 215 341 3776
2019-11-30 17:09:07 GMT 53.532280 9.640826 13,825 215 341 3776
2019-11-30 17:09:04 GMT 53.537567 9.646938 13,550 215 342 3584
2019-11-30 17:09:01 GMT 53.541000 9.650861 13,425 215 342 3200
2019-11-30 17:08:58 GMT 53.544571 9.654882 13,200 215 341 2944
2019-11-30 17:08:55 GMT 53.548096 9.658944 11,275 215 330 2624
2019-11-30 17:08:52 GMT 53.551987 9.663417 12,975 215 339 3136
2019-11-30 17:08:49 GMT 53.556534 9.668615 12,775 215 338 3008
2019-11-30 17:08:46 GMT 53.564117 9.677229 11,350 215 330 2624
2019-11-30 17:08:43 GMT 53.564117 9.677229 12,450 215 336 3392
2019-11-30 17:08:40 GMT 53.568741 9.682565 12,225 215 335 3456
2019-11-30 17:08:37 GMT 53.571533 9.685704 12,125 215 334 3456
2019-11-30 17:08:34 GMT 53.575882 9.690648 11,825 215 333 3264
2019-11-30 17:08:28 GMT 53.583908 9.699797 11,525 215 332 2880
2019-11-30 17:08:25 GMT 53.587490 9.703917 11,425 215 331 2752
2019-11-30 17:08:22 GMT 53.591125 9.708147 11,150 215 326 2048
2019-11-30 17:08:19 GMT 53.595547 9.713207 11,225 215 327 2240
2019-11-30 17:08:16 GMT 53.597946 9.715916 11,100 215 325 1984
2019-11-30 17:08:13 GMT 53.603302 9.722194 10,950 215 319 1408
2019-11-30 17:08:09 GMT 53.606918 9.726353 10,825 215 311 1472
2019-11-30 17:08:06 GMT 53.610394 9.730332 10,725 215 305 1600
2019-11-30 17:08:03 GMT 53.613934 9.734452 10,750 215 307 1600
2019-11-30 17:08:00 GMT 53.617237 9.738249 10,625 215 300 1728
2019-11-30 17:07:57 GMT 53.621201 9.742833 10,575 215 297 1856
2019-11-30 17:07:54 GMT 53.624405 9.746521 10,525 215 297 2048
2019-11-30 17:07:51 GMT 53.626831 9.749268 10,350 215 291 3072
2019-11-30 17:07:48 GMT 53.634045 9.757556 9,825 215 285 3264
2019-11-30 17:07:42 GMT 53.637814 9.761837 9,800 215 287 3136
2019-11-30 17:07:38 GMT 53.642441 9.767238 9,650 215 284 3456
2019-11-30 17:07:35 GMT 53.646053 9.771369 9,425 215 283 3584
2019-11-30 17:07:32 GMT 53.648243 9.773874 9,225 215 283 3584
2019-11-30 17:07:29 GMT 53.651093 9.777204 8,975 215 282 3584
2019-11-30 17:07:26 GMT 53.654667 9.781306 8,850 215 281 3584
2019-11-30 17:07:23 GMT 53.662262 9.790152 8,550 215 281 3520
2019-11-30 17:07:19 GMT 53.662262 9.790152 8,375 215 277 3648
2019-11-30 17:07:16 GMT 53.665009 9.793291 8,000 215 277 3648
2019-11-30 17:07:13 GMT 53.668671 9.797529 7,800 215 276 3648
2019-11-30 17:07:10 GMT 53.671829 9.801139 7,950 215 277 3648
2019-11-30 17:07:07 GMT 53.675335 9.805136 7,650 215 276 3648
2019-11-30 17:07:04 GMT 53.681248 9.811841 7,400 214 275 3648
2019-11-30 17:07:01 GMT 53.683868 9.814793 7,150 214 273 3776
2019-11-30 17:06:58 GMT 53.687531 9.818950 7,050 214 273 3840
2019-11-30 17:06:55 GMT 53.687531 9.818950 6,850 215 273 4032
2019-11-30 17:06:52 GMT 53.691147 9.823268 6,600 216 272 4096
2019-11-30 17:06:49 GMT 53.694469 9.827351 6,450 218 272 3904
2019-11-30 17:06:46 GMT 53.696842 9.830502 6,325 223 270 3392
2019-11-30 17:06:43 GMT 53.699543 9.834783 6,100 230 267 3072
2019-11-30 17:06:40 GMT 53.701721 9.839120 5,950 236 262 2752
2019-11-30 17:06:37 GMT 53.703964 9.844456 5,900 239 260 2560
2019-11-30 17:06:34 GMT 53.705734 9.849889 5,700 245 254 2240
2019-11-30 17:06:31 GMT 53.707272 9.855625 5,550 250 246 2176
2019-11-30 17:06:27 GMT 53.708946 9.863461 5,375 251 238 2240
2019-11-30 17:06:24 GMT 53.710110 9.869115 5,300 251 237 2304
2019-11-30 17:06:21 GMT 53.710808 9.872589 5,200 251 232 2368
2019-11-30 17:06:18 GMT 53.713135 9.885030 4,975 254 225 2496
2019-11-30 17:06:14 GMT 53.713135 9.885030 4,875 256 222 2368
2019-11-30 17:06:10 GMT 53.713787 9.890442 4,625 268 210 2112
2019-11-30 17:06:07 GMT 53.714066 9.896339 4,575 272 206 2048
2019-11-30 17:06:04 GMT 53.713928 9.901186 4,425 280 198 1984
2019-11-30 17:06:01 GMT 53.713348 9.907078 4,325 286 194 1792
2019-11-30 17:05:56 GMT 53.712021 9.914111 4,175 294 187 1472
2019-11-30 17:05:53 GMT 53.710968 9.917908 4,100 301 180 1024
2019-11-30 17:05:50 GMT 53.709736 9.921381 4,050 307 176 1216
2019-11-30 17:05:47 GMT 53.709045 9.923165 3,950 313 170 1216
2019-11-30 17:05:44 GMT 53.707226 9.926955 3,925 323 162 1216
2019-11-30 17:05:41 GMT 53.705875 9.929217 3,875 319 166 1216
2019-11-30 17:05:38 GMT 53.703220 9.933014 3,775 325 161 1280
2019-11-30 17:05:34 GMT 53.701035 9.935486 3,700 330 156 1408
2019-11-30 17:05:31 GMT 53.699524 9.937055 3,600 333 152 1344
2019-11-30 17:05:28 GMT 53.697636 9.938669 3,550 333 150 1344
2019-11-30 17:05:25 GMT 53.695911 9.940203 3,500 333 148 1280
2019-11-30 17:05:22 GMT 53.693726 9.942061 3,425 333 144 1280
2019-11-30 17:05:16 GMT 53.690044 9.945293 3,275 333 135 1280
2019-11-30 17:05:13 GMT 53.688858 9.946394 3,175 332 131 1472
2019-11-30 17:05:10 GMT 53.685196 9.949690 3,125 332 130 1536
2019-11-30 17:05:07 GMT 53.685196 9.949690 3,075 332 129 1856
2019-11-30 17:05:04 GMT 53.683914 9.950788 2,925 333 127 2112
2019-11-30 17:05:01 GMT 53.681900 9.952644 2,875 333 128 2112
2019-11-30 17:04:58 GMT 53.680664 9.953692 2,525 333 128 2112
2019-11-30 17:04:55 GMT 53.679245 9.954987 2,650 333 128 2112
2019-11-30 17:04:52 GMT 53.677525 9.956441 2,500 333 128 2112
2019-11-30 17:04:49 GMT 53.676453 9.957380 2,425 333 129 2112
2019-11-30 17:04:46 GMT 53.673798 9.959656 2,250 334 129 2240
2019-11-30 17:04:43 GMT 53.672287 9.960990 2,125 334 130 2240
2019-11-30 17:04:40 GMT 53.671192 9.961853 2,050 334 130 2304
2019-11-30 17:04:36 GMT 53.669266 9.963501 1,825 334 131 2368
2019-11-30 17:04:33 GMT 53.666958 9.965488 1,675 334 132 2368
2019-11-30 17:04:30 GMT 53.665924 9.966248 1,625 334 132 2368
2019-11-30 17:04:27 GMT 53.661926 9.969689 1,425 334 132 2432
2019-11-30 17:04:20 GMT 53.658646 9.972447 1,200 335 134 2496
2019-11-30 17:04:17 GMT 53.658646 9.972447 1,075 334 135 2496
2019-11-30 17:04:13 GMT 53.654343 9.975900 850 334 138 2560
2019-11-30 17:04:10 GMT 53.654343 9.975900 750 334 138 2560
2019-11-30 17:04:05 GMT 53.650085 9.979431 500 335 139 2432
2019-11-30 17:04:02 GMT 53.650085 9.979431 375 335 140 2368
2019-11-30 17:03:59 GMT 53.648438 9.980687 300 335 140 2368
2019-11-30 17:03:55 GMT 53.645542 9.983018 50 335 141 2240
2019-11-30 17:03:48 GMT 53.642292 9.985748 0 334 143 1856
2019-11-30 17:03:35 GMT 53.634842 9.992144 0 331 115
2019-11-30 17:03:30 GMT 53.632748 9.993929 0 331 90
2019-11-30 17:03:26 GMT 53.631546 9.994969 0 331 76
2019-11-30 17:03:17 GMT 53.629154 9.997034 0 331 24
2019-11-30 17:03:12 GMT 53.628830 9.997316 0 331 0
2019-11-30 17:03:03 GMT 53.628807 9.997336 0 331 0
2019-11-30 17:02:52 GMT 53.628685 9.997402 0 309 4
2019-11-30 17:02:41 GMT 53.628571 9.997637 0 258 6
2019-11-30 17:02:33 GMT 53.628628 9.998029 0 244 10
2019-11-30 17:02:26 GMT 53.628811 9.998618 0 241 12
2019-11-30 17:02:14 GMT 53.629028 9.999305 0 244 8
2019-11-30 17:02:05 GMT 53.629131 9.999677 0 253 4
2019-11-30 17:01:55 GMT 53.629154 9.999815 0 255 4
2019-11-30 17:01:45 GMT 53.629154 9.999815 0 258 6
2019-11-30 17:01:33 GMT 53.629166 10.000265 0 298 6
2019-11-30 17:01:24 GMT 53.629051 10.000689 0 250 10
2019-11-30 17:01:14 GMT 53.629292 10.001110 0 210 9
2019-11-30 17:01:05 GMT 53.629601 10.001423 0 213 9
2019-11-30 17:00:54 GMT 53.630299 10.002169 0 210 13
2019-11-30 17:00:44 GMT 53.630299 10.002169 0 213 13
2019-11-30 17:00:32 GMT 53.630833 10.002607 0 185 10
2019-11-30 17:00:24 GMT 53.631226 10.002561 0 177 12
2019-11-30 17:00:14 GMT 53.631702 10.002506 0 174 11
2019-11-30 17:00:02 GMT 53.632404 10.002426 0 177 12
2019-11-30 16:59:53 GMT 53.632786 10.002385 0 174 10
2019-11-30 16:59:43 GMT 53.633160 10.002326 0 177 7
2019-11-30 16:59:18 GMT 53.633518 10.002284 0 177 0
2019-11-30 16:59:02 GMT 53.633514 10.002287 0 177 0
2019-11-30 16:58:53 GMT 53.633518 10.002284 0 177 0
2019-11-30 16:58:32 GMT 53.633514 10.002287 0 177 0
2019-11-30 16:58:23 GMT 53.633518 10.002284 0 177 0
2019-11-30 16:57:47 GMT 53.633518 10.002305 0 177 0
2019-11-30 16:57:31 GMT 53.633526 10.002306 0 177 0
2019-11-30 16:57:22 GMT 53.633518 10.002305 0 177 0
2019-11-30 16:57:11 GMT 53.633503 10.002306 0 177 2
2019-11-30 16:57:01 GMT 53.633438 10.002325 0 171 3
2019-11-30 16:56:51 GMT 53.633366 10.002444 0 146 3
2019-11-30 16:56:41 GMT 53.633324 10.002628 0 123 4
2019-11-30 16:56:31 GMT 53.633308 10.002856 0 101 4

Making use of Plane Finder data

You are free to use the raw flight data, aircraft information and images provided in this report for your own purposes provided the data is correctly attributed to Plane Finder. We ask that you please credit Plane Finder and link to planefinder.net in close proximity to the content.

Optionally one of the following logos (no smaller then 150x24px) can be used and must link to planefinder.net

Embedding the Plane Finder map

You are welcome to embed the Plane Finder playback map on your website to offer visitors a more interactive experience. We suggest using the following HTML code:

<iframe src="//planefinder.net/data/report/AF1511-F-GRXK-7700-squawk-2019-11-30/map" width="800" height="600" seamless="seamless"></iframe>

Where our data comes from

Plane Finder has a global network of data feeds and antenna radars that receive data broadcast directly from aircraft. The primary technologies used are ADS-B and MLAT. We also show feeds from the FAA and a FLARM glider feed.

Click here to find out more about the Plane Finder network.

How we collect our data